<?xml version="1.0" encoding="UTF-8" standalone="no" ?>
<gpx xmlns="http://www.topografix.com/GPX/1/1" xmlns:xsi="http://www.w3.org/2001/XMLSchema-instance" xsi:schemaLocation="http://www.topografix.com/GPX/1/1 http://www.topografix.com/GPX/1/1/gpx.xsd" version="1.1" creator="VisuGPX - https://www.visugpx.com">
  <metadata>
    <name>AMPUS NOTRE DAME DE SPELUQUE</name>
    <desc><![CDATA[Randonnée sur la commune d'Ampus. Départ de la place de la mairie, franchissement du pont du ratton puis montée vers le dolmen de Marenq, passage au Turquet, puis au Mourjai. Passage au niveau des fours à Bois à La Treille. Puis visite de la chapelle notre dame de Spéluque avec le concours bienveillant de la soeur qui nous a enchanté. Retour par Valsegure  et la fameuse rue Rompe Cul du village.]]></desc>
  </metadata>
  <trk>
    <name><![CDATA[Tracé actuel: 03 MAI 2016 13:25]]></name>
    <trkseg>
      <trkpt lat="43.60629" lon="6.38281">
        <ele>545.2</ele>
        <time>2016-05-03T11:25:27Z</time>
      </trkpt>
      <trkpt lat="43.60622" lon="6.38284">
        <ele>545.2</ele>
        <time>2016-05-03T11:25:28Z</time>
      </trkpt>
      <trkpt lat="43.60568" lon="6.38341">
        <ele>545.2</ele>
        <time>2016-05-03T11:25:55Z</time>
      </trkpt>
      <trkpt lat="43.60562" lon="6.38356">
        <ele>549.05</ele>
        <time>2016-05-03T11:26:13Z</time>
      </trkpt>
      <trkpt lat="43.60563" lon="6.38356">
        <ele>551.93</ele>
        <time>2016-05-03T11:26:18Z</time>
      </trkpt>
      <trkpt lat="43.60565" lon="6.3835">
        <ele>554.34</ele>
        <time>2016-05-03T11:26:22Z</time>
      </trkpt>
      <trkpt lat="43.60568" lon="6.3833">
        <ele>556.26</ele>
        <time>2016-05-03T11:26:29Z</time>
      </trkpt>
      <trkpt lat="43.6057" lon="6.38305">
        <ele>561.55</ele>
        <time>2016-05-03T11:26:40Z</time>
      </trkpt>
      <trkpt lat="43.60571" lon="6.38303">
        <ele>559.62</ele>
        <time>2016-05-03T11:26:41Z</time>
      </trkpt>
      <trkpt lat="43.60573" lon="6.38288">
        <ele>562.51</ele>
        <time>2016-05-03T11:26:51Z</time>
      </trkpt>
      <trkpt lat="43.60576" lon="6.38279">
        <ele>563.47</ele>
        <time>2016-05-03T11:26:56Z</time>
      </trkpt>
      <trkpt lat="43.60576" lon="6.38276">
        <ele>563.95</ele>
        <time>2016-05-03T11:26:58Z</time>
      </trkpt>
      <trkpt lat="43.60579" lon="6.38271">
        <ele>564.91</ele>
        <time>2016-05-03T11:27:10Z</time>
      </trkpt>
      <trkpt lat="43.6058" lon="6.38271">
        <ele>566.35</ele>
        <time>2016-05-03T11:27:27Z</time>
      </trkpt>
      <trkpt lat="43.60581" lon="6.38271">
        <ele>567.32</ele>
        <time>2016-05-03T11:27:43Z</time>
      </trkpt>
      <trkpt lat="43.6058" lon="6.38268">
        <ele>567.8</ele>
        <time>2016-05-03T11:28:00Z</time>
      </trkpt>
      <trkpt lat="43.60585" lon="6.38266">
        <ele>567.8</ele>
        <time>2016-05-03T11:28:06Z</time>
      </trkpt>
      <trkpt lat="43.60593" lon="6.38252">
        <ele>567.8</ele>
        <time>2016-05-03T11:28:19Z</time>
      </trkpt>
      <trkpt lat="43.60596" lon="6.38245">
        <ele>568.76</ele>
        <time>2016-05-03T11:28:31Z</time>
      </trkpt>
      <trkpt lat="43.60596" lon="6.38245">
        <ele>571.64</ele>
        <time>2016-05-03T11:28:43Z</time>
      </trkpt>
      <trkpt lat="43.60597" lon="6.38245">
        <ele>571.16</ele>
        <time>2016-05-03T11:28:44Z</time>
      </trkpt>
      <trkpt lat="43.60608" lon="6.38246">
        <ele>571.64</ele>
        <time>2016-05-03T11:28:53Z</time>
      </trkpt>
      <trkpt lat="43.60614" lon="6.38242">
        <ele>572.12</ele>
        <time>2016-05-03T11:29:04Z</time>
      </trkpt>
      <trkpt lat="43.60617" lon="6.38237">
        <ele>573.08</ele>
        <time>2016-05-03T11:29:17Z</time>
      </trkpt>
      <trkpt lat="43.60625" lon="6.38239">
        <ele>574.04</ele>
        <time>2016-05-03T11:29:31Z</time>
      </trkpt>
      <trkpt lat="43.60627" lon="6.38239">
        <ele>575.01</ele>
        <time>2016-05-03T11:29:33Z</time>
      </trkpt>
      <trkpt lat="43.60646" lon="6.3825">
        <ele>575.49</ele>
        <time>2016-05-03T11:29:50Z</time>
      </trkpt>
      <trkpt lat="43.60654" lon="6.38259">
        <ele>576.45</ele>
        <time>2016-05-03T11:30:04Z</time>
      </trkpt>
      <trkpt lat="43.60663" lon="6.3827">
        <ele>577.89</ele>
        <time>2016-05-03T11:30:17Z</time>
      </trkpt>
      <trkpt lat="43.60673" lon="6.38277">
        <ele>578.37</ele>
        <time>2016-05-03T11:30:26Z</time>
      </trkpt>
      <trkpt lat="43.60684" lon="6.38285">
        <ele>579.33</ele>
        <time>2016-05-03T11:30:37Z</time>
      </trkpt>
      <trkpt lat="43.60692" lon="6.38308">
        <ele>580.77</ele>
        <time>2016-05-03T11:30:53Z</time>
      </trkpt>
      <trkpt lat="43.607" lon="6.38317">
        <ele>580.77</ele>
        <time>2016-05-03T11:31:06Z</time>
      </trkpt>
      <trkpt lat="43.60701" lon="6.38319">
        <ele>580.77</ele>
        <time>2016-05-03T11:31:08Z</time>
      </trkpt>
      <trkpt lat="43.60713" lon="6.38331">
        <ele>579.81</ele>
        <time>2016-05-03T11:31:20Z</time>
      </trkpt>
      <trkpt lat="43.60715" lon="6.38334">
        <ele>579.81</ele>
        <time>2016-05-03T11:31:23Z</time>
      </trkpt>
      <trkpt lat="43.60719" lon="6.38344">
        <ele>578.85</ele>
        <time>2016-05-03T11:31:31Z</time>
      </trkpt>
      <trkpt lat="43.6072" lon="6.38351">
        <ele>578.85</ele>
        <time>2016-05-03T11:31:36Z</time>
      </trkpt>
      <trkpt lat="43.60719" lon="6.38361">
        <ele>577.89</ele>
        <time>2016-05-03T11:31:43Z</time>
      </trkpt>
      <trkpt lat="43.60719" lon="6.38365">
        <ele>577.89</ele>
        <time>2016-05-03T11:31:46Z</time>
      </trkpt>
      <trkpt lat="43.60721" lon="6.38368">
        <ele>577.89</ele>
        <time>2016-05-03T11:31:48Z</time>
      </trkpt>
      <trkpt lat="43.60724" lon="6.38367">
        <ele>577.41</ele>
        <time>2016-05-03T11:31:52Z</time>
      </trkpt>
      <trkpt lat="43.60731" lon="6.38355">
        <ele>576.93</ele>
        <time>2016-05-03T11:32:02Z</time>
      </trkpt>
      <trkpt lat="43.60734" lon="6.38353">
        <ele>575.97</ele>
        <time>2016-05-03T11:32:06Z</time>
      </trkpt>
      <trkpt lat="43.60737" lon="6.38356">
        <ele>575.49</ele>
        <time>2016-05-03T11:32:11Z</time>
      </trkpt>
      <trkpt lat="43.60747" lon="6.38362">
        <ele>574.04</ele>
        <time>2016-05-03T11:32:22Z</time>
      </trkpt>
      <trkpt lat="43.60761" lon="6.38361">
        <ele>572.12</ele>
        <time>2016-05-03T11:32:36Z</time>
      </trkpt>
      <trkpt lat="43.60762" lon="6.38361">
        <ele>571.64</ele>
        <time>2016-05-03T11:32:37Z</time>
      </trkpt>
      <trkpt lat="43.60778" lon="6.38359">
        <ele>570.2</ele>
        <time>2016-05-03T11:32:52Z</time>
      </trkpt>
      <trkpt lat="43.60794" lon="6.38358">
        <ele>568.28</ele>
        <time>2016-05-03T11:33:07Z</time>
      </trkpt>
      <trkpt lat="43.60795" lon="6.38358">
        <ele>567.8</ele>
        <time>2016-05-03T11:33:09Z</time>
      </trkpt>
      <trkpt lat="43.60799" lon="6.38358">
        <ele>567.32</ele>
        <time>2016-05-03T11:33:12Z</time>
      </trkpt>
      <trkpt lat="43.60807" lon="6.38355">
        <ele>566.35</ele>
        <time>2016-05-03T11:33:19Z</time>
      </trkpt>
      <trkpt lat="43.60811" lon="6.38355">
        <ele>565.87</ele>
        <time>2016-05-03T11:33:24Z</time>
      </trkpt>
      <trkpt lat="43.60827" lon="6.3835">
        <ele>563.95</ele>
        <time>2016-05-03T11:33:39Z</time>
      </trkpt>
      <trkpt lat="43.60841" lon="6.38348">
        <ele>562.51</ele>
        <time>2016-05-03T11:33:52Z</time>
      </trkpt>
      <trkpt lat="43.60853" lon="6.38347">
        <ele>561.07</ele>
        <time>2016-05-03T11:34:04Z</time>
      </trkpt>
      <trkpt lat="43.60868" lon="6.38351">
        <ele>559.14</ele>
        <time>2016-05-03T11:34:19Z</time>
      </trkpt>
      <trkpt lat="43.60878" lon="6.38355">
        <ele>557.7</ele>
        <time>2016-05-03T11:34:31Z</time>
      </trkpt>
      <trkpt lat="43.60884" lon="6.38357">
        <ele>557.22</ele>
        <time>2016-05-03T11:34:37Z</time>
      </trkpt>
      <trkpt lat="43.60898" lon="6.38362">
        <ele>555.78</ele>
        <time>2016-05-03T11:34:52Z</time>
      </trkpt>
      <trkpt lat="43.60906" lon="6.38366">
        <ele>555.3</ele>
        <time>2016-05-03T11:34:59Z</time>
      </trkpt>
      <trkpt lat="43.60908" lon="6.38365">
        <ele>554.82</ele>
        <time>2016-05-03T11:35:01Z</time>
      </trkpt>
      <trkpt lat="43.60925" lon="6.3836">
        <ele>553.86</ele>
        <time>2016-05-03T11:35:16Z</time>
      </trkpt>
      <trkpt lat="43.60938" lon="6.38356">
        <ele>553.38</ele>
        <time>2016-05-03T11:35:28Z</time>
      </trkpt>
      <trkpt lat="43.60952" lon="6.38351">
        <ele>552.41</ele>
        <time>2016-05-03T11:35:40Z</time>
      </trkpt>
      <trkpt lat="43.60967" lon="6.38349">
        <ele>550.01</ele>
        <time>2016-05-03T11:35:55Z</time>
      </trkpt>
      <trkpt lat="43.60972" lon="6.38348">
        <ele>550.49</ele>
        <time>2016-05-03T11:35:59Z</time>
      </trkpt>
      <trkpt lat="43.60982" lon="6.38351">
        <ele>546.17</ele>
        <time>2016-05-03T11:36:09Z</time>
      </trkpt>
      <trkpt lat="43.60983" lon="6.38352">
        <ele>553.86</ele>
        <time>2016-05-03T11:36:10Z</time>
      </trkpt>
      <trkpt lat="43.60984" lon="6.38352">
        <ele>549.05</ele>
        <time>2016-05-03T11:36:11Z</time>
      </trkpt>
      <trkpt lat="43.60998" lon="6.38354">
        <ele>548.09</ele>
        <time>2016-05-03T11:36:24Z</time>
      </trkpt>
      <trkpt lat="43.61008" lon="6.38356">
        <ele>546.65</ele>
        <time>2016-05-03T11:36:34Z</time>
      </trkpt>
      <trkpt lat="43.6102" lon="6.38359">
        <ele>544.72</ele>
        <time>2016-05-03T11:36:47Z</time>
      </trkpt>
      <trkpt lat="43.61023" lon="6.3836">
        <ele>544.24</ele>
        <time>2016-05-03T11:36:50Z</time>
      </trkpt>
      <trkpt lat="43.61041" lon="6.3836">
        <ele>541.36</ele>
        <time>2016-05-03T11:37:05Z</time>
      </trkpt>
      <trkpt lat="43.61054" lon="6.38357">
        <ele>539.44</ele>
        <time>2016-05-03T11:37:18Z</time>
      </trkpt>
      <trkpt lat="43.61056" lon="6.38356">
        <ele>539.44</ele>
        <time>2016-05-03T11:37:20Z</time>
      </trkpt>
      <trkpt lat="43.61062" lon="6.38353">
        <ele>538.96</ele>
        <time>2016-05-03T11:37:26Z</time>
      </trkpt>
      <trkpt lat="43.61071" lon="6.38349">
        <ele>538.48</ele>
        <time>2016-05-03T11:37:35Z</time>
      </trkpt>
      <trkpt lat="43.61074" lon="6.38345">
        <ele>538.48</ele>
        <time>2016-05-03T11:37:40Z</time>
      </trkpt>
      <trkpt lat="43.61087" lon="6.38339">
        <ele>537.99</ele>
        <time>2016-05-03T11:37:54Z</time>
      </trkpt>
      <trkpt lat="43.61102" lon="6.38326">
        <ele>537.03</ele>
        <time>2016-05-03T11:38:11Z</time>
      </trkpt>
      <trkpt lat="43.61116" lon="6.38328">
        <ele>536.55</ele>
        <time>2016-05-03T11:38:27Z</time>
      </trkpt>
      <trkpt lat="43.61116" lon="6.38326">
        <ele>536.55</ele>
        <time>2016-05-03T11:38:47Z</time>
      </trkpt>
      <trkpt lat="43.61119" lon="6.38327">
        <ele>536.55</ele>
        <time>2016-05-03T11:39:04Z</time>
      </trkpt>
      <trkpt lat="43.61121" lon="6.38327">
        <ele>536.07</ele>
        <time>2016-05-03T11:39:25Z</time>
      </trkpt>
      <trkpt lat="43.61122" lon="6.38332">
        <ele>536.07</ele>
        <time>2016-05-03T11:39:38Z</time>
      </trkpt>
      <trkpt lat="43.61123" lon="6.3833">
        <ele>536.07</ele>
        <time>2016-05-03T11:39:57Z</time>
      </trkpt>
      <trkpt lat="43.61123" lon="6.3833">
        <ele>536.07</ele>
        <time>2016-05-03T11:40:00Z</time>
      </trkpt>
      <trkpt lat="43.61133" lon="6.38334">
        <ele>536.07</ele>
        <time>2016-05-03T11:40:14Z</time>
      </trkpt>
      <trkpt lat="43.61135" lon="6.38333">
        <ele>536.07</ele>
        <time>2016-05-03T11:40:16Z</time>
      </trkpt>
      <trkpt lat="43.61144" lon="6.38334">
        <ele>536.07</ele>
        <time>2016-05-03T11:40:24Z</time>
      </trkpt>
      <trkpt lat="43.61147" lon="6.38337">
        <ele>536.07</ele>
        <time>2016-05-03T11:40:27Z</time>
      </trkpt>
      <trkpt lat="43.61149" lon="6.38339">
        <ele>535.59</ele>
        <time>2016-05-03T11:40:30Z</time>
      </trkpt>
      <trkpt lat="43.61158" lon="6.3836">
        <ele>534.63</ele>
        <time>2016-05-03T11:40:46Z</time>
      </trkpt>
      <trkpt lat="43.61161" lon="6.38369">
        <ele>534.63</ele>
        <time>2016-05-03T11:40:53Z</time>
      </trkpt>
      <trkpt lat="43.61165" lon="6.38376">
        <ele>534.15</ele>
        <time>2016-05-03T11:40:59Z</time>
      </trkpt>
      <trkpt lat="43.61165" lon="6.38379">
        <ele>534.15</ele>
        <time>2016-05-03T11:41:01Z</time>
      </trkpt>
      <trkpt lat="43.61168" lon="6.38387">
        <ele>534.63</ele>
        <time>2016-05-03T11:41:08Z</time>
      </trkpt>
      <trkpt lat="43.61169" lon="6.3839">
        <ele>534.15</ele>
        <time>2016-05-03T11:41:10Z</time>
      </trkpt>
      <trkpt lat="43.61177" lon="6.38418">
        <ele>535.11</ele>
        <time>2016-05-03T11:41:27Z</time>
      </trkpt>
      <trkpt lat="43.61181" lon="6.38442">
        <ele>535.59</ele>
        <time>2016-05-03T11:41:42Z</time>
      </trkpt>
      <trkpt lat="43.61183" lon="6.38458">
        <ele>535.59</ele>
        <time>2016-05-03T11:41:52Z</time>
      </trkpt>
      <trkpt lat="43.61187" lon="6.38485">
        <ele>534.63</ele>
        <time>2016-05-03T11:42:08Z</time>
      </trkpt>
      <trkpt lat="43.61188" lon="6.38509">
        <ele>534.63</ele>
        <time>2016-05-03T11:42:22Z</time>
      </trkpt>
      <trkpt lat="43.61189" lon="6.3851">
        <ele>535.11</ele>
        <time>2016-05-03T11:42:23Z</time>
      </trkpt>
      <trkpt lat="43.61191" lon="6.38517">
        <ele>535.59</ele>
        <time>2016-05-03T11:42:38Z</time>
      </trkpt>
      <trkpt lat="43.6119" lon="6.38515">
        <ele>535.11</ele>
        <time>2016-05-03T11:42:58Z</time>
      </trkpt>
      <trkpt lat="43.6119" lon="6.38515">
        <ele>535.59</ele>
        <time>2016-05-03T11:43:25Z</time>
      </trkpt>
      <trkpt lat="43.61191" lon="6.38517">
        <ele>536.55</ele>
        <time>2016-05-03T11:43:53Z</time>
      </trkpt>
      <trkpt lat="43.61194" lon="6.38521">
        <ele>536.55</ele>
        <time>2016-05-03T11:44:00Z</time>
      </trkpt>
      <trkpt lat="43.61206" lon="6.38532">
        <ele>537.51</ele>
        <time>2016-05-03T11:44:15Z</time>
      </trkpt>
      <trkpt lat="43.61209" lon="6.38534">
        <ele>537.99</ele>
        <time>2016-05-03T11:44:18Z</time>
      </trkpt>
      <trkpt lat="43.61221" lon="6.3854">
        <ele>539.44</ele>
        <time>2016-05-03T11:44:31Z</time>
      </trkpt>
      <trkpt lat="43.61231" lon="6.38543">
        <ele>541.36</ele>
        <time>2016-05-03T11:44:44Z</time>
      </trkpt>
      <trkpt lat="43.61242" lon="6.38547">
        <ele>543.28</ele>
        <time>2016-05-03T11:44:59Z</time>
      </trkpt>
      <trkpt lat="43.6125" lon="6.38549">
        <ele>544.72</ele>
        <time>2016-05-03T11:45:08Z</time>
      </trkpt>
      <trkpt lat="43.61254" lon="6.3855">
        <ele>545.2</ele>
        <time>2016-05-03T11:45:13Z</time>
      </trkpt>
      <trkpt lat="43.61266" lon="6.38554">
        <ele>546.65</ele>
        <time>2016-05-03T11:45:29Z</time>
      </trkpt>
      <trkpt lat="43.61277" lon="6.38562">
        <ele>548.57</ele>
        <time>2016-05-03T11:45:43Z</time>
      </trkpt>
      <trkpt lat="43.61288" lon="6.38568">
        <ele>550.49</ele>
        <time>2016-05-03T11:45:58Z</time>
      </trkpt>
      <trkpt lat="43.61299" lon="6.38574">
        <ele>551.45</ele>
        <time>2016-05-03T11:46:13Z</time>
      </trkpt>
      <trkpt lat="43.61311" lon="6.38579">
        <ele>553.38</ele>
        <time>2016-05-03T11:46:27Z</time>
      </trkpt>
      <trkpt lat="43.61315" lon="6.3858">
        <ele>553.38</ele>
        <time>2016-05-03T11:46:32Z</time>
      </trkpt>
      <trkpt lat="43.6133" lon="6.38587">
        <ele>554.82</ele>
        <time>2016-05-03T11:46:49Z</time>
      </trkpt>
      <trkpt lat="43.61339" lon="6.38593">
        <ele>555.3</ele>
        <time>2016-05-03T11:46:59Z</time>
      </trkpt>
      <trkpt lat="43.61349" lon="6.38597">
        <ele>556.26</ele>
        <time>2016-05-03T11:47:10Z</time>
      </trkpt>
      <trkpt lat="43.61355" lon="6.386">
        <ele>557.22</ele>
        <time>2016-05-03T11:47:17Z</time>
      </trkpt>
      <trkpt lat="43.61368" lon="6.38609">
        <ele>558.18</ele>
        <time>2016-05-03T11:47:33Z</time>
      </trkpt>
      <trkpt lat="43.6138" lon="6.38617">
        <ele>559.14</ele>
        <time>2016-05-03T11:47:48Z</time>
      </trkpt>
      <trkpt lat="43.61392" lon="6.38625">
        <ele>560.59</ele>
        <time>2016-05-03T11:48:02Z</time>
      </trkpt>
      <trkpt lat="43.61394" lon="6.38627">
        <ele>560.59</ele>
        <time>2016-05-03T11:48:05Z</time>
      </trkpt>
      <trkpt lat="43.61398" lon="6.38629">
        <ele>561.07</ele>
        <time>2016-05-03T11:48:09Z</time>
      </trkpt>
      <trkpt lat="43.61403" lon="6.38631">
        <ele>561.55</ele>
        <time>2016-05-03T11:48:14Z</time>
      </trkpt>
      <trkpt lat="43.61407" lon="6.38632">
        <ele>561.55</ele>
        <time>2016-05-03T11:48:18Z</time>
      </trkpt>
      <trkpt lat="43.61412" lon="6.38634">
        <ele>562.03</ele>
        <time>2016-05-03T11:48:24Z</time>
      </trkpt>
      <trkpt lat="43.61418" lon="6.38635">
        <ele>562.51</ele>
        <time>2016-05-03T11:48:30Z</time>
      </trkpt>
      <trkpt lat="43.61425" lon="6.38639">
        <ele>562.99</ele>
        <time>2016-05-03T11:48:37Z</time>
      </trkpt>
      <trkpt lat="43.61438" lon="6.38645">
        <ele>563.95</ele>
        <time>2016-05-03T11:48:51Z</time>
      </trkpt>
      <trkpt lat="43.61439" lon="6.38645">
        <ele>563.95</ele>
        <time>2016-05-03T11:48:52Z</time>
      </trkpt>
      <trkpt lat="43.61441" lon="6.38645">
        <ele>564.43</ele>
        <time>2016-05-03T11:48:54Z</time>
      </trkpt>
      <trkpt lat="43.6145" lon="6.38647">
        <ele>564.91</ele>
        <time>2016-05-03T11:49:03Z</time>
      </trkpt>
      <trkpt lat="43.61452" lon="6.38647">
        <ele>564.91</ele>
        <time>2016-05-03T11:49:05Z</time>
      </trkpt>
      <trkpt lat="43.6146" lon="6.38652">
        <ele>565.87</ele>
        <time>2016-05-03T11:49:15Z</time>
      </trkpt>
      <trkpt lat="43.61465" lon="6.38654">
        <ele>566.35</ele>
        <time>2016-05-03T11:49:25Z</time>
      </trkpt>
      <trkpt lat="43.61471" lon="6.38656">
        <ele>566.83</ele>
        <time>2016-05-03T11:49:36Z</time>
      </trkpt>
      <trkpt lat="43.61474" lon="6.38657">
        <ele>566.83</ele>
        <time>2016-05-03T11:49:39Z</time>
      </trkpt>
      <trkpt lat="43.61489" lon="6.38658">
        <ele>568.76</ele>
        <time>2016-05-03T11:49:53Z</time>
      </trkpt>
      <trkpt lat="43.61496" lon="6.38658">
        <ele>569.72</ele>
        <time>2016-05-03T11:50:06Z</time>
      </trkpt>
      <trkpt lat="43.61497" lon="6.38655">
        <ele>569.24</ele>
        <time>2016-05-03T11:50:28Z</time>
      </trkpt>
      <trkpt lat="43.61497" lon="6.38655">
        <ele>568.76</ele>
        <time>2016-05-03T11:50:47Z</time>
      </trkpt>
      <trkpt lat="43.61496" lon="6.38655">
        <ele>569.24</ele>
        <time>2016-05-03T11:51:05Z</time>
      </trkpt>
      <trkpt lat="43.61496" lon="6.38655">
        <ele>569.24</ele>
        <time>2016-05-03T11:51:28Z</time>
      </trkpt>
      <trkpt lat="43.61497" lon="6.38655">
        <ele>569.24</ele>
        <time>2016-05-03T11:51:46Z</time>
      </trkpt>
      <trkpt lat="43.61497" lon="6.38655">
        <ele>569.24</ele>
        <time>2016-05-03T11:52:02Z</time>
      </trkpt>
      <trkpt lat="43.61497" lon="6.38655">
        <ele>569.24</ele>
        <time>2016-05-03T11:52:21Z</time>
      </trkpt>
      <trkpt lat="43.61499" lon="6.38656">
        <ele>569.72</ele>
        <time>2016-05-03T11:52:39Z</time>
      </trkpt>
      <trkpt lat="43.61498" lon="6.38656">
        <ele>569.24</ele>
        <time>2016-05-03T11:53:06Z</time>
      </trkpt>
      <trkpt lat="43.61498" lon="6.38656">
        <ele>569.24</ele>
        <time>2016-05-03T11:53:09Z</time>
      </trkpt>
      <trkpt lat="43.61502" lon="6.38657">
        <ele>570.2</ele>
        <time>2016-05-03T11:53:15Z</time>
      </trkpt>
      <trkpt lat="43.61507" lon="6.38658">
        <ele>571.16</ele>
        <time>2016-05-03T11:53:21Z</time>
      </trkpt>
      <trkpt lat="43.61517" lon="6.38661">
        <ele>572.12</ele>
        <time>2016-05-03T11:53:34Z</time>
      </trkpt>
      <trkpt lat="43.61521" lon="6.3866">
        <ele>572.12</ele>
        <time>2016-05-03T11:53:38Z</time>
      </trkpt>
      <trkpt lat="43.61531" lon="6.38661">
        <ele>573.56</ele>
        <time>2016-05-03T11:53:50Z</time>
      </trkpt>
      <trkpt lat="43.61544" lon="6.38655">
        <ele>575.49</ele>
        <time>2016-05-03T11:54:05Z</time>
      </trkpt>
      <trkpt lat="43.61551" lon="6.38655">
        <ele>576.93</ele>
        <time>2016-05-03T11:54:13Z</time>
      </trkpt>
      <trkpt lat="43.61554" lon="6.38655">
        <ele>577.41</ele>
        <time>2016-05-03T11:54:16Z</time>
      </trkpt>
      <trkpt lat="43.61565" lon="6.38653">
        <ele>579.33</ele>
        <time>2016-05-03T11:54:28Z</time>
      </trkpt>
      <trkpt lat="43.61575" lon="6.38654">
        <ele>581.73</ele>
        <time>2016-05-03T11:54:42Z</time>
      </trkpt>
      <trkpt lat="43.61581" lon="6.38653">
        <ele>582.7</ele>
        <time>2016-05-03T11:54:50Z</time>
      </trkpt>
      <trkpt lat="43.61592" lon="6.38655">
        <ele>584.62</ele>
        <time>2016-05-03T11:55:05Z</time>
      </trkpt>
      <trkpt lat="43.61597" lon="6.38658">
        <ele>585.58</ele>
        <time>2016-05-03T11:55:12Z</time>
      </trkpt>
      <trkpt lat="43.61608" lon="6.3866">
        <ele>587.02</ele>
        <time>2016-05-03T11:55:25Z</time>
      </trkpt>
      <trkpt lat="43.61615" lon="6.38664">
        <ele>588.46</ele>
        <time>2016-05-03T11:55:35Z</time>
      </trkpt>
      <trkpt lat="43.61621" lon="6.38668">
        <ele>589.43</ele>
        <time>2016-05-03T11:55:43Z</time>
      </trkpt>
      <trkpt lat="43.61627" lon="6.38673">
        <ele>590.39</ele>
        <time>2016-05-03T11:55:51Z</time>
      </trkpt>
      <trkpt lat="43.61637" lon="6.38678">
        <ele>591.83</ele>
        <time>2016-05-03T11:56:02Z</time>
      </trkpt>
      <trkpt lat="43.61637" lon="6.38678">
        <ele>591.83</ele>
        <time>2016-05-03T11:56:03Z</time>
      </trkpt>
      <trkpt lat="43.6164" lon="6.38681">
        <ele>591.83</ele>
        <time>2016-05-03T11:56:06Z</time>
      </trkpt>
      <trkpt lat="43.61642" lon="6.38685">
        <ele>592.31</ele>
        <time>2016-05-03T11:56:10Z</time>
      </trkpt>
      <trkpt lat="43.61644" lon="6.38686">
        <ele>592.31</ele>
        <time>2016-05-03T11:56:12Z</time>
      </trkpt>
      <trkpt lat="43.61653" lon="6.38699">
        <ele>593.75</ele>
        <time>2016-05-03T11:56:27Z</time>
      </trkpt>
      <trkpt lat="43.61654" lon="6.38699">
        <ele>593.75</ele>
        <time>2016-05-03T11:56:45Z</time>
      </trkpt>
      <trkpt lat="43.61654" lon="6.38698">
        <ele>593.27</ele>
        <time>2016-05-03T11:57:21Z</time>
      </trkpt>
      <trkpt lat="43.61661" lon="6.38706">
        <ele>594.71</ele>
        <time>2016-05-03T11:57:43Z</time>
      </trkpt>
      <trkpt lat="43.61665" lon="6.38711">
        <ele>595.19</ele>
        <time>2016-05-03T11:57:49Z</time>
      </trkpt>
      <trkpt lat="43.61671" lon="6.38716">
        <ele>595.67</ele>
        <time>2016-05-03T11:57:56Z</time>
      </trkpt>
      <trkpt lat="43.61674" lon="6.38719">
        <ele>596.15</ele>
        <time>2016-05-03T11:58:00Z</time>
      </trkpt>
      <trkpt lat="43.61683" lon="6.3872">
        <ele>597.6</ele>
        <time>2016-05-03T11:58:12Z</time>
      </trkpt>
      <trkpt lat="43.61688" lon="6.3872">
        <ele>598.08</ele>
        <time>2016-05-03T11:58:17Z</time>
      </trkpt>
      <trkpt lat="43.61699" lon="6.38723">
        <ele>599.04</ele>
        <time>2016-05-03T11:58:31Z</time>
      </trkpt>
      <trkpt lat="43.6171" lon="6.38726">
        <ele>600.96</ele>
        <time>2016-05-03T11:58:45Z</time>
      </trkpt>
      <trkpt lat="43.61715" lon="6.38738">
        <ele>602.88</ele>
        <time>2016-05-03T11:58:58Z</time>
      </trkpt>
      <trkpt lat="43.61717" lon="6.38745">
        <ele>603.85</ele>
        <time>2016-05-03T11:59:07Z</time>
      </trkpt>
      <trkpt lat="43.6172" lon="6.38752">
        <ele>604.81</ele>
        <time>2016-05-03T11:59:18Z</time>
      </trkpt>
      <trkpt lat="43.61721" lon="6.38755">
        <ele>604.33</ele>
        <time>2016-05-03T11:59:46Z</time>
      </trkpt>
      <trkpt lat="43.6172" lon="6.38753">
        <ele>604.81</ele>
        <time>2016-05-03T12:00:01Z</time>
      </trkpt>
      <trkpt lat="43.61719" lon="6.38752">
        <ele>604.81</ele>
        <time>2016-05-03T12:00:20Z</time>
      </trkpt>
      <trkpt lat="43.6172" lon="6.38752">
        <ele>604.81</ele>
        <time>2016-05-03T12:00:41Z</time>
      </trkpt>
      <trkpt lat="43.61719" lon="6.38752">
        <ele>604.81</ele>
        <time>2016-05-03T12:01:02Z</time>
      </trkpt>
      <trkpt lat="43.6172" lon="6.38753">
        <ele>604.81</ele>
        <time>2016-05-03T12:01:16Z</time>
      </trkpt>
      <trkpt lat="43.6172" lon="6.38754">
        <ele>605.77</ele>
        <time>2016-05-03T12:01:39Z</time>
      </trkpt>
      <trkpt lat="43.6172" lon="6.38754">
        <ele>604.81</ele>
        <time>2016-05-03T12:01:59Z</time>
      </trkpt>
      <trkpt lat="43.61721" lon="6.38751">
        <ele>605.29</ele>
        <time>2016-05-03T12:02:13Z</time>
      </trkpt>
      <trkpt lat="43.61724" lon="6.38737">
        <ele>606.25</ele>
        <time>2016-05-03T12:02:26Z</time>
      </trkpt>
      <trkpt lat="43.61728" lon="6.38725">
        <ele>608.65</ele>
        <time>2016-05-03T12:02:40Z</time>
      </trkpt>
      <trkpt lat="43.61731" lon="6.38714">
        <ele>611.06</ele>
        <time>2016-05-03T12:02:54Z</time>
      </trkpt>
      <trkpt lat="43.61736" lon="6.38701">
        <ele>613.46</ele>
        <time>2016-05-03T12:03:07Z</time>
      </trkpt>
      <trkpt lat="43.6174" lon="6.3869">
        <ele>614.42</ele>
        <time>2016-05-03T12:03:15Z</time>
      </trkpt>
      <trkpt lat="43.61735" lon="6.38674">
        <ele>616.82</ele>
        <time>2016-05-03T12:03:29Z</time>
      </trkpt>
      <trkpt lat="43.6173" lon="6.38671">
        <ele>618.26</ele>
        <time>2016-05-03T12:03:36Z</time>
      </trkpt>
      <trkpt lat="43.61722" lon="6.38666">
        <ele>619.23</ele>
        <time>2016-05-03T12:03:46Z</time>
      </trkpt>
      <trkpt lat="43.61712" lon="6.38665">
        <ele>620.19</ele>
        <time>2016-05-03T12:03:55Z</time>
      </trkpt>
      <trkpt lat="43.61699" lon="6.38658">
        <ele>622.11</ele>
        <time>2016-05-03T12:04:11Z</time>
      </trkpt>
      <trkpt lat="43.61692" lon="6.38645">
        <ele>622.59</ele>
        <time>2016-05-03T12:04:25Z</time>
      </trkpt>
      <trkpt lat="43.61688" lon="6.38637">
        <ele>624.03</ele>
        <time>2016-05-03T12:04:39Z</time>
      </trkpt>
      <trkpt lat="43.61682" lon="6.38626">
        <ele>624.99</ele>
        <time>2016-05-03T12:04:52Z</time>
      </trkpt>
      <trkpt lat="43.61678" lon="6.38613">
        <ele>625.96</ele>
        <time>2016-05-03T12:05:07Z</time>
      </trkpt>
      <trkpt lat="43.6167" lon="6.38601">
        <ele>626.92</ele>
        <time>2016-05-03T12:05:22Z</time>
      </trkpt>
      <trkpt lat="43.61668" lon="6.38598">
        <ele>626.92</ele>
        <time>2016-05-03T12:05:26Z</time>
      </trkpt>
      <trkpt lat="43.61666" lon="6.3858">
        <ele>627.88</ele>
        <time>2016-05-03T12:05:43Z</time>
      </trkpt>
      <trkpt lat="43.61662" lon="6.38565">
        <ele>628.84</ele>
        <time>2016-05-03T12:05:58Z</time>
      </trkpt>
      <trkpt lat="43.61655" lon="6.38549">
        <ele>628.84</ele>
        <time>2016-05-03T12:06:12Z</time>
      </trkpt>
      <trkpt lat="43.61654" lon="6.38546">
        <ele>628.84</ele>
        <time>2016-05-03T12:06:15Z</time>
      </trkpt>
      <trkpt lat="43.61649" lon="6.38529">
        <ele>629.32</ele>
        <time>2016-05-03T12:06:31Z</time>
      </trkpt>
      <trkpt lat="43.61652" lon="6.38515">
        <ele>630.28</ele>
        <time>2016-05-03T12:06:47Z</time>
      </trkpt>
      <trkpt lat="43.61658" lon="6.385">
        <ele>631.72</ele>
        <time>2016-05-03T12:07:06Z</time>
      </trkpt>
      <trkpt lat="43.6166" lon="6.38489">
        <ele>632.68</ele>
        <time>2016-05-03T12:07:22Z</time>
      </trkpt>
      <trkpt lat="43.61659" lon="6.38477">
        <ele>633.17</ele>
        <time>2016-05-03T12:07:35Z</time>
      </trkpt>
      <trkpt lat="43.61656" lon="6.38464">
        <ele>633.17</ele>
        <time>2016-05-03T12:07:49Z</time>
      </trkpt>
      <trkpt lat="43.61651" lon="6.38451">
        <ele>633.17</ele>
        <time>2016-05-03T12:08:02Z</time>
      </trkpt>
      <trkpt lat="43.61641" lon="6.38432">
        <ele>633.65</ele>
        <time>2016-05-03T12:08:19Z</time>
      </trkpt>
      <trkpt lat="43.6164" lon="6.38424">
        <ele>633.17</ele>
        <time>2016-05-03T12:08:28Z</time>
      </trkpt>
      <trkpt lat="43.61639" lon="6.38419">
        <ele>633.17</ele>
        <time>2016-05-03T12:08:32Z</time>
      </trkpt>
      <trkpt lat="43.61633" lon="6.38404">
        <ele>633.17</ele>
        <time>2016-05-03T12:08:46Z</time>
      </trkpt>
      <trkpt lat="43.61625" lon="6.384">
        <ele>633.65</ele>
        <time>2016-05-03T12:08:57Z</time>
      </trkpt>
      <trkpt lat="43.61619" lon="6.38396">
        <ele>633.17</ele>
        <time>2016-05-03T12:09:03Z</time>
      </trkpt>
      <trkpt lat="43.61614" lon="6.38391">
        <ele>633.65</ele>
        <time>2016-05-03T12:09:09Z</time>
      </trkpt>
      <trkpt lat="43.61611" lon="6.38388">
        <ele>633.17</ele>
        <time>2016-05-03T12:09:12Z</time>
      </trkpt>
      <trkpt lat="43.6161" lon="6.38386">
        <ele>633.65</ele>
        <time>2016-05-03T12:09:14Z</time>
      </trkpt>
      <trkpt lat="43.61604" lon="6.38367">
        <ele>633.65</ele>
        <time>2016-05-03T12:09:29Z</time>
      </trkpt>
      <trkpt lat="43.61601" lon="6.38363">
        <ele>633.65</ele>
        <time>2016-05-03T12:09:32Z</time>
      </trkpt>
      <trkpt lat="43.61599" lon="6.38354">
        <ele>633.65</ele>
        <time>2016-05-03T12:09:39Z</time>
      </trkpt>
      <trkpt lat="43.61598" lon="6.38343">
        <ele>633.17</ele>
        <time>2016-05-03T12:09:48Z</time>
      </trkpt>
      <trkpt lat="43.61589" lon="6.38328">
        <ele>633.17</ele>
        <time>2016-05-03T12:10:01Z</time>
      </trkpt>
      <trkpt lat="43.6158" lon="6.38314">
        <ele>633.17</ele>
        <time>2016-05-03T12:10:14Z</time>
      </trkpt>
      <trkpt lat="43.61579" lon="6.38312">
        <ele>633.17</ele>
        <time>2016-05-03T12:10:15Z</time>
      </trkpt>
      <trkpt lat="43.61565" lon="6.38309">
        <ele>632.68</ele>
        <time>2016-05-03T12:10:30Z</time>
      </trkpt>
      <trkpt lat="43.61564" lon="6.38309">
        <ele>632.68</ele>
        <time>2016-05-03T12:10:31Z</time>
      </trkpt>
      <trkpt lat="43.61562" lon="6.38309">
        <ele>632.68</ele>
        <time>2016-05-03T12:10:33Z</time>
      </trkpt>
      <trkpt lat="43.61552" lon="6.38302">
        <ele>632.68</ele>
        <time>2016-05-03T12:10:45Z</time>
      </trkpt>
      <trkpt lat="43.61541" lon="6.38295">
        <ele>631.24</ele>
        <time>2016-05-03T12:11:00Z</time>
      </trkpt>
      <trkpt lat="43.61531" lon="6.38281">
        <ele>630.76</ele>
        <time>2016-05-03T12:11:15Z</time>
      </trkpt>
      <trkpt lat="43.61525" lon="6.38275">
        <ele>630.76</ele>
        <time>2016-05-03T12:11:22Z</time>
      </trkpt>
      <trkpt lat="43.61512" lon="6.38267">
        <ele>630.28</ele>
        <time>2016-05-03T12:11:36Z</time>
      </trkpt>
      <trkpt lat="43.61501" lon="6.38257">
        <ele>629.8</ele>
        <time>2016-05-03T12:11:50Z</time>
      </trkpt>
      <trkpt lat="43.61497" lon="6.38253">
        <ele>629.8</ele>
        <time>2016-05-03T12:11:55Z</time>
      </trkpt>
      <trkpt lat="43.61486" lon="6.38239">
        <ele>629.32</ele>
        <time>2016-05-03T12:12:10Z</time>
      </trkpt>
      <trkpt lat="43.61468" lon="6.38236">
        <ele>628.84</ele>
        <time>2016-05-03T12:12:26Z</time>
      </trkpt>
      <trkpt lat="43.61454" lon="6.38237">
        <ele>628.36</ele>
        <time>2016-05-03T12:12:39Z</time>
      </trkpt>
      <trkpt lat="43.61445" lon="6.38235">
        <ele>628.36</ele>
        <time>2016-05-03T12:12:51Z</time>
      </trkpt>
      <trkpt lat="43.61436" lon="6.38246">
        <ele>627.88</ele>
        <time>2016-05-03T12:13:05Z</time>
      </trkpt>
      <trkpt lat="43.61428" lon="6.38258">
        <ele>627.4</ele>
        <time>2016-05-03T12:13:19Z</time>
      </trkpt>
      <trkpt lat="43.61419" lon="6.38267">
        <ele>625.96</ele>
        <time>2016-05-03T12:13:33Z</time>
      </trkpt>
      <trkpt lat="43.61413" lon="6.38274">
        <ele>625.47</ele>
        <time>2016-05-03T12:13:42Z</time>
      </trkpt>
      <trkpt lat="43.61404" lon="6.38288">
        <ele>624.99</ele>
        <time>2016-05-03T12:13:56Z</time>
      </trkpt>
      <trkpt lat="43.61405" lon="6.38305">
        <ele>624.03</ele>
        <time>2016-05-03T12:14:10Z</time>
      </trkpt>
      <trkpt lat="43.61407" lon="6.38309">
        <ele>624.03</ele>
        <time>2016-05-03T12:14:21Z</time>
      </trkpt>
      <trkpt lat="43.61409" lon="6.38313">
        <ele>625.96</ele>
        <time>2016-05-03T12:14:35Z</time>
      </trkpt>
      <trkpt lat="43.6141" lon="6.38313">
        <ele>624.51</ele>
        <time>2016-05-03T12:14:54Z</time>
      </trkpt>
      <trkpt lat="43.6141" lon="6.38313">
        <ele>624.99</ele>
        <time>2016-05-03T12:15:15Z</time>
      </trkpt>
      <trkpt lat="43.6141" lon="6.38313">
        <ele>625.47</ele>
        <time>2016-05-03T12:15:45Z</time>
      </trkpt>
      <trkpt lat="43.6141" lon="6.38313">
        <ele>624.99</ele>
        <time>2016-05-03T12:15:59Z</time>
      </trkpt>
      <trkpt lat="43.61409" lon="6.38312">
        <ele>624.51</ele>
        <time>2016-05-03T12:16:17Z</time>
      </trkpt>
      <trkpt lat="43.61409" lon="6.38311">
        <ele>624.51</ele>
        <time>2016-05-03T12:16:42Z</time>
      </trkpt>
      <trkpt lat="43.61408" lon="6.38311">
        <ele>624.51</ele>
        <time>2016-05-03T12:16:56Z</time>
      </trkpt>
      <trkpt lat="43.61408" lon="6.38313">
        <ele>625.47</ele>
        <time>2016-05-03T12:17:14Z</time>
      </trkpt>
      <trkpt lat="43.61409" lon="6.38313">
        <ele>624.03</ele>
        <time>2016-05-03T12:17:31Z</time>
      </trkpt>
      <trkpt lat="43.61409" lon="6.38312">
        <ele>624.51</ele>
        <time>2016-05-03T12:17:43Z</time>
      </trkpt>
      <trkpt lat="43.61408" lon="6.38311">
        <ele>624.51</ele>
        <time>2016-05-03T12:17:59Z</time>
      </trkpt>
      <trkpt lat="43.61408" lon="6.38311">
        <ele>624.03</ele>
        <time>2016-05-03T12:18:17Z</time>
      </trkpt>
      <trkpt lat="43.61407" lon="6.38311">
        <ele>624.51</ele>
        <time>2016-05-03T12:18:39Z</time>
      </trkpt>
      <trkpt lat="43.61409" lon="6.38311">
        <ele>624.99</ele>
        <time>2016-05-03T12:19:01Z</time>
      </trkpt>
      <trkpt lat="43.61408" lon="6.38309">
        <ele>624.51</ele>
        <time>2016-05-03T12:19:14Z</time>
      </trkpt>
      <trkpt lat="43.61409" lon="6.38311">
        <ele>624.51</ele>
        <time>2016-05-03T12:19:28Z</time>
      </trkpt>
      <trkpt lat="43.61409" lon="6.3831">
        <ele>624.51</ele>
        <time>2016-05-03T12:19:49Z</time>
      </trkpt>
      <trkpt lat="43.61408" lon="6.38311">
        <ele>624.51</ele>
        <time>2016-05-03T12:20:17Z</time>
      </trkpt>
      <trkpt lat="43.61407" lon="6.38311">
        <ele>624.51</ele>
        <time>2016-05-03T12:20:37Z</time>
      </trkpt>
      <trkpt lat="43.61407" lon="6.38312">
        <ele>624.51</ele>
        <time>2016-05-03T12:21:03Z</time>
      </trkpt>
      <trkpt lat="43.61407" lon="6.38311">
        <ele>624.51</ele>
        <time>2016-05-03T12:21:22Z</time>
      </trkpt>
      <trkpt lat="43.61408" lon="6.38311">
        <ele>624.51</ele>
        <time>2016-05-03T12:21:40Z</time>
      </trkpt>
      <trkpt lat="43.61407" lon="6.38307">
        <ele>624.51</ele>
        <time>2016-05-03T12:21:51Z</time>
      </trkpt>
      <trkpt lat="43.61404" lon="6.38299">
        <ele>624.51</ele>
        <time>2016-05-03T12:22:03Z</time>
      </trkpt>
      <trkpt lat="43.6141" lon="6.38288">
        <ele>625.47</ele>
        <time>2016-05-03T12:22:17Z</time>
      </trkpt>
      <trkpt lat="43.61413" lon="6.38283">
        <ele>621.15</ele>
        <time>2016-05-03T12:22:22Z</time>
      </trkpt>
      <trkpt lat="43.61413" lon="6.38282">
        <ele>629.32</ele>
        <time>2016-05-03T12:22:23Z</time>
      </trkpt>
      <trkpt lat="43.61414" lon="6.38281">
        <ele>625.96</ele>
        <time>2016-05-03T12:22:24Z</time>
      </trkpt>
      <trkpt lat="43.61419" lon="6.38272">
        <ele>626.44</ele>
        <time>2016-05-03T12:22:32Z</time>
      </trkpt>
      <trkpt lat="43.61427" lon="6.38262">
        <ele>627.4</ele>
        <time>2016-05-03T12:22:46Z</time>
      </trkpt>
      <trkpt lat="43.61436" lon="6.38252">
        <ele>627.88</ele>
        <time>2016-05-03T12:23:00Z</time>
      </trkpt>
      <trkpt lat="43.61438" lon="6.38243">
        <ele>628.36</ele>
        <time>2016-05-03T12:23:13Z</time>
      </trkpt>
      <trkpt lat="43.61444" lon="6.38241">
        <ele>628.84</ele>
        <time>2016-05-03T12:23:19Z</time>
      </trkpt>
      <trkpt lat="43.61455" lon="6.38241">
        <ele>629.32</ele>
        <time>2016-05-03T12:23:33Z</time>
      </trkpt>
      <trkpt lat="43.61472" lon="6.38238">
        <ele>628.84</ele>
        <time>2016-05-03T12:23:50Z</time>
      </trkpt>
      <trkpt lat="43.61483" lon="6.38245">
        <ele>629.8</ele>
        <time>2016-05-03T12:24:03Z</time>
      </trkpt>
      <trkpt lat="43.61492" lon="6.38256">
        <ele>630.28</ele>
        <time>2016-05-03T12:24:17Z</time>
      </trkpt>
      <trkpt lat="43.61499" lon="6.38259">
        <ele>630.28</ele>
        <time>2016-05-03T12:24:26Z</time>
      </trkpt>
      <trkpt lat="43.6151" lon="6.38272">
        <ele>630.76</ele>
        <time>2016-05-03T12:24:40Z</time>
      </trkpt>
      <trkpt lat="43.61521" lon="6.38279">
        <ele>631.24</ele>
        <time>2016-05-03T12:24:53Z</time>
      </trkpt>
      <trkpt lat="43.61529" lon="6.38295">
        <ele>632.2</ele>
        <time>2016-05-03T12:25:10Z</time>
      </trkpt>
      <trkpt lat="43.61538" lon="6.38303">
        <ele>632.2</ele>
        <time>2016-05-03T12:25:24Z</time>
      </trkpt>
      <trkpt lat="43.61551" lon="6.38312">
        <ele>633.17</ele>
        <time>2016-05-03T12:25:39Z</time>
      </trkpt>
      <trkpt lat="43.61553" lon="6.38314">
        <ele>633.17</ele>
        <time>2016-05-03T12:25:41Z</time>
      </trkpt>
      <trkpt lat="43.6157" lon="6.38317">
        <ele>633.65</ele>
        <time>2016-05-03T12:25:56Z</time>
      </trkpt>
      <trkpt lat="43.61579" lon="6.38326">
        <ele>633.17</ele>
        <time>2016-05-03T12:26:10Z</time>
      </trkpt>
      <trkpt lat="43.61589" lon="6.38341">
        <ele>634.13</ele>
        <time>2016-05-03T12:26:25Z</time>
      </trkpt>
      <trkpt lat="43.6159" lon="6.38344">
        <ele>634.61</ele>
        <time>2016-05-03T12:26:28Z</time>
      </trkpt>
      <trkpt lat="43.61595" lon="6.38362">
        <ele>634.61</ele>
        <time>2016-05-03T12:26:44Z</time>
      </trkpt>
      <trkpt lat="43.61599" lon="6.3838">
        <ele>634.61</ele>
        <time>2016-05-03T12:26:58Z</time>
      </trkpt>
      <trkpt lat="43.61612" lon="6.38395">
        <ele>634.61</ele>
        <time>2016-05-03T12:27:12Z</time>
      </trkpt>
      <trkpt lat="43.61621" lon="6.38403">
        <ele>635.09</ele>
        <time>2016-05-03T12:27:26Z</time>
      </trkpt>
      <trkpt lat="43.61624" lon="6.38417">
        <ele>634.61</ele>
        <time>2016-05-03T12:27:40Z</time>
      </trkpt>
      <trkpt lat="43.6163" lon="6.3842">
        <ele>634.61</ele>
        <time>2016-05-03T12:27:47Z</time>
      </trkpt>
      <trkpt lat="43.61642" lon="6.38418">
        <ele>636.05</ele>
        <time>2016-05-03T12:27:59Z</time>
      </trkpt>
      <trkpt lat="43.61652" lon="6.38415">
        <ele>636.53</ele>
        <time>2016-05-03T12:28:10Z</time>
      </trkpt>
      <trkpt lat="43.61654" lon="6.38414">
        <ele>632.68</ele>
        <time>2016-05-03T12:28:11Z</time>
      </trkpt>
      <trkpt lat="43.61656" lon="6.38413">
        <ele>640.86</ele>
        <time>2016-05-03T12:28:13Z</time>
      </trkpt>
      <trkpt lat="43.61657" lon="6.38412">
        <ele>636.53</ele>
        <time>2016-05-03T12:28:14Z</time>
      </trkpt>
      <trkpt lat="43.6166" lon="6.3841">
        <ele>636.53</ele>
        <time>2016-05-03T12:28:28Z</time>
      </trkpt>
      <trkpt lat="43.6166" lon="6.3841">
        <ele>636.05</ele>
        <time>2016-05-03T12:28:46Z</time>
      </trkpt>
      <trkpt lat="43.61661" lon="6.38409">
        <ele>636.53</ele>
        <time>2016-05-03T12:28:56Z</time>
      </trkpt>
      <trkpt lat="43.61669" lon="6.384">
        <ele>637.97</ele>
        <time>2016-05-03T12:29:08Z</time>
      </trkpt>
      <trkpt lat="43.61673" lon="6.384">
        <ele>637.97</ele>
        <time>2016-05-03T12:29:15Z</time>
      </trkpt>
      <trkpt lat="43.61686" lon="6.38399">
        <ele>638.45</ele>
        <time>2016-05-03T12:29:25Z</time>
      </trkpt>
      <trkpt lat="43.61691" lon="6.38401">
        <ele>639.41</ele>
        <time>2016-05-03T12:29:32Z</time>
      </trkpt>
      <trkpt lat="43.61701" lon="6.38405">
        <ele>639.41</ele>
        <time>2016-05-03T12:29:44Z</time>
      </trkpt>
      <trkpt lat="43.61712" lon="6.3841">
        <ele>639.89</ele>
        <time>2016-05-03T12:29:55Z</time>
      </trkpt>
      <trkpt lat="43.61715" lon="6.38413">
        <ele>639.89</ele>
        <time>2016-05-03T12:29:59Z</time>
      </trkpt>
      <trkpt lat="43.61718" lon="6.38415">
        <ele>639.89</ele>
        <time>2016-05-03T12:30:03Z</time>
      </trkpt>
      <trkpt lat="43.61727" lon="6.38421">
        <ele>640.38</ele>
        <time>2016-05-03T12:30:14Z</time>
      </trkpt>
      <trkpt lat="43.61735" lon="6.38427">
        <ele>640.86</ele>
        <time>2016-05-03T12:30:25Z</time>
      </trkpt>
      <trkpt lat="43.61743" lon="6.38432">
        <ele>640.86</ele>
        <time>2016-05-03T12:30:34Z</time>
      </trkpt>
      <trkpt lat="43.61748" lon="6.38439">
        <ele>640.86</ele>
        <time>2016-05-03T12:30:43Z</time>
      </trkpt>
      <trkpt lat="43.61754" lon="6.38447">
        <ele>641.34</ele>
        <time>2016-05-03T12:30:52Z</time>
      </trkpt>
      <trkpt lat="43.6176" lon="6.38461">
        <ele>641.34</ele>
        <time>2016-05-03T12:31:04Z</time>
      </trkpt>
      <trkpt lat="43.61763" lon="6.38465">
        <ele>641.34</ele>
        <time>2016-05-03T12:31:08Z</time>
      </trkpt>
      <trkpt lat="43.61773" lon="6.38477">
        <ele>641.82</ele>
        <time>2016-05-03T12:31:20Z</time>
      </trkpt>
      <trkpt lat="43.61784" lon="6.38484">
        <ele>642.3</ele>
        <time>2016-05-03T12:31:31Z</time>
      </trkpt>
      <trkpt lat="43.61793" lon="6.38487">
        <ele>640.86</ele>
        <time>2016-05-03T12:31:42Z</time>
      </trkpt>
      <trkpt lat="43.61794" lon="6.38488">
        <ele>644.22</ele>
        <time>2016-05-03T12:31:43Z</time>
      </trkpt>
      <trkpt lat="43.61801" lon="6.38491">
        <ele>643.26</ele>
        <time>2016-05-03T12:31:49Z</time>
      </trkpt>
      <trkpt lat="43.61804" lon="6.38492">
        <ele>643.26</ele>
        <time>2016-05-03T12:31:51Z</time>
      </trkpt>
      <trkpt lat="43.61808" lon="6.38495">
        <ele>643.74</ele>
        <time>2016-05-03T12:31:57Z</time>
      </trkpt>
      <trkpt lat="43.6181" lon="6.385">
        <ele>643.74</ele>
        <time>2016-05-03T12:32:01Z</time>
      </trkpt>
      <trkpt lat="43.61812" lon="6.38505">
        <ele>644.22</ele>
        <time>2016-05-03T12:32:05Z</time>
      </trkpt>
      <trkpt lat="43.61821" lon="6.3851">
        <ele>645.18</ele>
        <time>2016-05-03T12:32:15Z</time>
      </trkpt>
      <trkpt lat="43.61822" lon="6.3851">
        <ele>645.18</ele>
        <time>2016-05-03T12:32:16Z</time>
      </trkpt>
      <trkpt lat="43.61828" lon="6.38515">
        <ele>645.18</ele>
        <time>2016-05-03T12:32:24Z</time>
      </trkpt>
      <trkpt lat="43.61832" lon="6.38522">
        <ele>645.66</ele>
        <time>2016-05-03T12:32:30Z</time>
      </trkpt>
      <trkpt lat="43.61844" lon="6.3853">
        <ele>646.62</ele>
        <time>2016-05-03T12:32:44Z</time>
      </trkpt>
      <trkpt lat="43.61855" lon="6.38534">
        <ele>647.1</ele>
        <time>2016-05-03T12:32:54Z</time>
      </trkpt>
      <trkpt lat="43.61863" lon="6.38533">
        <ele>647.1</ele>
        <time>2016-05-03T12:33:04Z</time>
      </trkpt>
      <trkpt lat="43.61864" lon="6.38533">
        <ele>647.59</ele>
        <time>2016-05-03T12:33:23Z</time>
      </trkpt>
      <trkpt lat="43.61865" lon="6.38534">
        <ele>647.59</ele>
        <time>2016-05-03T12:33:51Z</time>
      </trkpt>
      <trkpt lat="43.61865" lon="6.38534">
        <ele>647.59</ele>
        <time>2016-05-03T12:34:16Z</time>
      </trkpt>
      <trkpt lat="43.6187" lon="6.38531">
        <ele>647.59</ele>
        <time>2016-05-03T12:34:32Z</time>
      </trkpt>
      <trkpt lat="43.61879" lon="6.38527">
        <ele>649.51</ele>
        <time>2016-05-03T12:34:45Z</time>
      </trkpt>
      <trkpt lat="43.61885" lon="6.38524">
        <ele>649.51</ele>
        <time>2016-05-03T12:34:52Z</time>
      </trkpt>
      <trkpt lat="43.61898" lon="6.38523">
        <ele>650.95</ele>
        <time>2016-05-03T12:35:08Z</time>
      </trkpt>
      <trkpt lat="43.61911" lon="6.38516">
        <ele>652.87</ele>
        <time>2016-05-03T12:35:23Z</time>
      </trkpt>
      <trkpt lat="43.61926" lon="6.38504">
        <ele>654.31</ele>
        <time>2016-05-03T12:35:40Z</time>
      </trkpt>
      <trkpt lat="43.61937" lon="6.38497">
        <ele>655.28</ele>
        <time>2016-05-03T12:35:54Z</time>
      </trkpt>
      <trkpt lat="43.61947" lon="6.38491">
        <ele>655.76</ele>
        <time>2016-05-03T12:36:06Z</time>
      </trkpt>
      <trkpt lat="43.61961" lon="6.38486">
        <ele>656.72</ele>
        <time>2016-05-03T12:36:21Z</time>
      </trkpt>
      <trkpt lat="43.61971" lon="6.38485">
        <ele>657.2</ele>
        <time>2016-05-03T12:36:31Z</time>
      </trkpt>
      <trkpt lat="43.61978" lon="6.38484">
        <ele>657.68</ele>
        <time>2016-05-03T12:36:39Z</time>
      </trkpt>
      <trkpt lat="43.6199" lon="6.38486">
        <ele>658.64</ele>
        <time>2016-05-03T12:36:53Z</time>
      </trkpt>
      <trkpt lat="43.61996" lon="6.38482">
        <ele>659.12</ele>
        <time>2016-05-03T12:36:59Z</time>
      </trkpt>
      <trkpt lat="43.62009" lon="6.38472">
        <ele>659.12</ele>
        <time>2016-05-03T12:37:16Z</time>
      </trkpt>
      <trkpt lat="43.62026" lon="6.38461">
        <ele>660.08</ele>
        <time>2016-05-03T12:37:33Z</time>
      </trkpt>
      <trkpt lat="43.62035" lon="6.38454">
        <ele>660.56</ele>
        <time>2016-05-03T12:37:46Z</time>
      </trkpt>
      <trkpt lat="43.62051" lon="6.38447">
        <ele>660.56</ele>
        <time>2016-05-03T12:38:04Z</time>
      </trkpt>
      <trkpt lat="43.62055" lon="6.38447">
        <ele>660.56</ele>
        <time>2016-05-03T12:38:10Z</time>
      </trkpt>
      <trkpt lat="43.62063" lon="6.38445">
        <ele>660.56</ele>
        <time>2016-05-03T12:38:17Z</time>
      </trkpt>
      <trkpt lat="43.62077" lon="6.38443">
        <ele>660.08</ele>
        <time>2016-05-03T12:38:32Z</time>
      </trkpt>
      <trkpt lat="43.62092" lon="6.38437">
        <ele>660.56</ele>
        <time>2016-05-03T12:38:48Z</time>
      </trkpt>
      <trkpt lat="43.62107" lon="6.38436">
        <ele>660.56</ele>
        <time>2016-05-03T12:39:03Z</time>
      </trkpt>
      <trkpt lat="43.62119" lon="6.38436">
        <ele>660.56</ele>
        <time>2016-05-03T12:39:17Z</time>
      </trkpt>
      <trkpt lat="43.6212" lon="6.38436">
        <ele>660.56</ele>
        <time>2016-05-03T12:39:18Z</time>
      </trkpt>
      <trkpt lat="43.62125" lon="6.38437">
        <ele>660.56</ele>
        <time>2016-05-03T12:39:23Z</time>
      </trkpt>
      <trkpt lat="43.62134" lon="6.38437">
        <ele>660.56</ele>
        <time>2016-05-03T12:39:32Z</time>
      </trkpt>
      <trkpt lat="43.62148" lon="6.38434">
        <ele>660.56</ele>
        <time>2016-05-03T12:39:45Z</time>
      </trkpt>
      <trkpt lat="43.62161" lon="6.38431">
        <ele>661.04</ele>
        <time>2016-05-03T12:39:57Z</time>
      </trkpt>
      <trkpt lat="43.62165" lon="6.38431">
        <ele>661.04</ele>
        <time>2016-05-03T12:40:01Z</time>
      </trkpt>
      <trkpt lat="43.6217" lon="6.38431">
        <ele>661.04</ele>
        <time>2016-05-03T12:40:06Z</time>
      </trkpt>
      <trkpt lat="43.62187" lon="6.38425">
        <ele>659.12</ele>
        <time>2016-05-03T12:40:23Z</time>
      </trkpt>
      <trkpt lat="43.62204" lon="6.38425">
        <ele>658.16</ele>
        <time>2016-05-03T12:40:40Z</time>
      </trkpt>
      <trkpt lat="43.62218" lon="6.38427">
        <ele>657.68</ele>
        <time>2016-05-03T12:40:54Z</time>
      </trkpt>
      <trkpt lat="43.62223" lon="6.38428">
        <ele>657.68</ele>
        <time>2016-05-03T12:40:59Z</time>
      </trkpt>
      <trkpt lat="43.62236" lon="6.3843">
        <ele>657.2</ele>
        <time>2016-05-03T12:41:13Z</time>
      </trkpt>
      <trkpt lat="43.62248" lon="6.38434">
        <ele>657.2</ele>
        <time>2016-05-03T12:41:26Z</time>
      </trkpt>
      <trkpt lat="43.62252" lon="6.38435">
        <ele>657.68</ele>
        <time>2016-05-03T12:41:30Z</time>
      </trkpt>
      <trkpt lat="43.62259" lon="6.38439">
        <ele>657.68</ele>
        <time>2016-05-03T12:41:37Z</time>
      </trkpt>
      <trkpt lat="43.62262" lon="6.38439">
        <ele>657.68</ele>
        <time>2016-05-03T12:41:40Z</time>
      </trkpt>
      <trkpt lat="43.62268" lon="6.3844">
        <ele>657.68</ele>
        <time>2016-05-03T12:41:46Z</time>
      </trkpt>
      <trkpt lat="43.62273" lon="6.38442">
        <ele>657.68</ele>
        <time>2016-05-03T12:41:51Z</time>
      </trkpt>
      <trkpt lat="43.62275" lon="6.38442">
        <ele>657.68</ele>
        <time>2016-05-03T12:41:54Z</time>
      </trkpt>
      <trkpt lat="43.62277" lon="6.38441">
        <ele>657.68</ele>
        <time>2016-05-03T12:41:56Z</time>
      </trkpt>
      <trkpt lat="43.62283" lon="6.38442">
        <ele>657.68</ele>
        <time>2016-05-03T12:42:02Z</time>
      </trkpt>
      <trkpt lat="43.62296" lon="6.38441">
        <ele>657.68</ele>
        <time>2016-05-03T12:42:15Z</time>
      </trkpt>
      <trkpt lat="43.62298" lon="6.3844">
        <ele>657.68</ele>
        <time>2016-05-03T12:42:18Z</time>
      </trkpt>
      <trkpt lat="43.62301" lon="6.38441">
        <ele>657.68</ele>
        <time>2016-05-03T12:42:21Z</time>
      </trkpt>
      <trkpt lat="43.62316" lon="6.3844">
        <ele>658.16</ele>
        <time>2016-05-03T12:42:36Z</time>
      </trkpt>
      <trkpt lat="43.62317" lon="6.3844">
        <ele>658.16</ele>
        <time>2016-05-03T12:42:37Z</time>
      </trkpt>
      <trkpt lat="43.62326" lon="6.38439">
        <ele>658.64</ele>
        <time>2016-05-03T12:42:46Z</time>
      </trkpt>
      <trkpt lat="43.62337" lon="6.38438">
        <ele>658.64</ele>
        <time>2016-05-03T12:42:58Z</time>
      </trkpt>
      <trkpt lat="43.6235" lon="6.38432">
        <ele>661.04</ele>
        <time>2016-05-03T12:43:11Z</time>
      </trkpt>
      <trkpt lat="43.62357" lon="6.38429">
        <ele>658.16</ele>
        <time>2016-05-03T12:43:16Z</time>
      </trkpt>
      <trkpt lat="43.62368" lon="6.38431">
        <ele>656.72</ele>
        <time>2016-05-03T12:43:27Z</time>
      </trkpt>
      <trkpt lat="43.62368" lon="6.38431">
        <ele>664.41</ele>
        <time>2016-05-03T12:43:28Z</time>
      </trkpt>
      <trkpt lat="43.62369" lon="6.38431">
        <ele>658.64</ele>
        <time>2016-05-03T12:43:29Z</time>
      </trkpt>
      <trkpt lat="43.62381" lon="6.38431">
        <ele>654.8</ele>
        <time>2016-05-03T12:43:41Z</time>
      </trkpt>
      <trkpt lat="43.62382" lon="6.38431">
        <ele>662.97</ele>
        <time>2016-05-03T12:43:42Z</time>
      </trkpt>
      <trkpt lat="43.62383" lon="6.38431">
        <ele>659.6</ele>
        <time>2016-05-03T12:43:43Z</time>
      </trkpt>
      <trkpt lat="43.62386" lon="6.38431">
        <ele>658.64</ele>
        <time>2016-05-03T12:43:45Z</time>
      </trkpt>
      <trkpt lat="43.62391" lon="6.38432">
        <ele>660.08</ele>
        <time>2016-05-03T12:43:50Z</time>
      </trkpt>
      <trkpt lat="43.62394" lon="6.38433">
        <ele>654.8</ele>
        <time>2016-05-03T12:43:53Z</time>
      </trkpt>
      <trkpt lat="43.62395" lon="6.38433">
        <ele>663.45</ele>
        <time>2016-05-03T12:43:54Z</time>
      </trkpt>
      <trkpt lat="43.62396" lon="6.38434">
        <ele>659.6</ele>
        <time>2016-05-03T12:43:55Z</time>
      </trkpt>
      <trkpt lat="43.62404" lon="6.38437">
        <ele>660.08</ele>
        <time>2016-05-03T12:44:03Z</time>
      </trkpt>
      <trkpt lat="43.62419" lon="6.3844">
        <ele>660.56</ele>
        <time>2016-05-03T12:44:17Z</time>
      </trkpt>
      <trkpt lat="43.62422" lon="6.38441">
        <ele>661.04</ele>
        <time>2016-05-03T12:44:20Z</time>
      </trkpt>
      <trkpt lat="43.62427" lon="6.38447">
        <ele>661.52</ele>
        <time>2016-05-03T12:44:27Z</time>
      </trkpt>
      <trkpt lat="43.6243" lon="6.38448">
        <ele>661.52</ele>
        <time>2016-05-03T12:44:30Z</time>
      </trkpt>
      <trkpt lat="43.62438" lon="6.38444">
        <ele>661.52</ele>
        <time>2016-05-03T12:44:45Z</time>
      </trkpt>
      <trkpt lat="43.62435" lon="6.38434">
        <ele>661.04</ele>
        <time>2016-05-03T12:44:59Z</time>
      </trkpt>
      <trkpt lat="43.62433" lon="6.3843">
        <ele>660.08</ele>
        <time>2016-05-03T12:45:04Z</time>
      </trkpt>
      <trkpt lat="43.62433" lon="6.3843">
        <ele>662.97</ele>
        <time>2016-05-03T12:45:05Z</time>
      </trkpt>
      <trkpt lat="43.62432" lon="6.38429">
        <ele>658.16</ele>
        <time>2016-05-03T12:45:06Z</time>
      </trkpt>
      <trkpt lat="43.62432" lon="6.38428">
        <ele>662.49</ele>
        <time>2016-05-03T12:45:07Z</time>
      </trkpt>
      <trkpt lat="43.62425" lon="6.38409">
        <ele>659.6</ele>
        <time>2016-05-03T12:45:22Z</time>
      </trkpt>
      <trkpt lat="43.62419" lon="6.38393">
        <ele>659.12</ele>
        <time>2016-05-03T12:45:35Z</time>
      </trkpt>
      <trkpt lat="43.62417" lon="6.38384">
        <ele>658.16</ele>
        <time>2016-05-03T12:45:41Z</time>
      </trkpt>
      <trkpt lat="43.62413" lon="6.38363">
        <ele>657.2</ele>
        <time>2016-05-03T12:45:57Z</time>
      </trkpt>
      <trkpt lat="43.62411" lon="6.38354">
        <ele>656.72</ele>
        <time>2016-05-03T12:46:04Z</time>
      </trkpt>
      <trkpt lat="43.62412" lon="6.38347">
        <ele>655.76</ele>
        <time>2016-05-03T12:46:08Z</time>
      </trkpt>
      <trkpt lat="43.62412" lon="6.38342">
        <ele>655.28</ele>
        <time>2016-05-03T12:46:11Z</time>
      </trkpt>
      <trkpt lat="43.62415" lon="6.38324">
        <ele>654.31</ele>
        <time>2016-05-03T12:46:27Z</time>
      </trkpt>
      <trkpt lat="43.62418" lon="6.38316">
        <ele>653.35</ele>
        <time>2016-05-03T12:46:34Z</time>
      </trkpt>
      <trkpt lat="43.62423" lon="6.38306">
        <ele>653.35</ele>
        <time>2016-05-03T12:46:44Z</time>
      </trkpt>
      <trkpt lat="43.62425" lon="6.38303">
        <ele>653.35</ele>
        <time>2016-05-03T12:46:46Z</time>
      </trkpt>
      <trkpt lat="43.6244" lon="6.38277">
        <ele>652.39</ele>
        <time>2016-05-03T12:47:04Z</time>
      </trkpt>
      <trkpt lat="43.62448" lon="6.38256">
        <ele>651.91</ele>
        <time>2016-05-03T12:47:19Z</time>
      </trkpt>
      <trkpt lat="43.62453" lon="6.38247">
        <ele>651.91</ele>
        <time>2016-05-03T12:47:27Z</time>
      </trkpt>
      <trkpt lat="43.62454" lon="6.38234">
        <ele>651.43</ele>
        <time>2016-05-03T12:47:35Z</time>
      </trkpt>
      <trkpt lat="43.62457" lon="6.38226">
        <ele>651.43</ele>
        <time>2016-05-03T12:47:41Z</time>
      </trkpt>
      <trkpt lat="43.6246" lon="6.38201">
        <ele>650.95</ele>
        <time>2016-05-03T12:47:57Z</time>
      </trkpt>
      <trkpt lat="43.62466" lon="6.38176">
        <ele>651.91</ele>
        <time>2016-05-03T12:48:15Z</time>
      </trkpt>
      <trkpt lat="43.62469" lon="6.38156">
        <ele>651.43</ele>
        <time>2016-05-03T12:48:28Z</time>
      </trkpt>
      <trkpt lat="43.6247" lon="6.38149">
        <ele>651.43</ele>
        <time>2016-05-03T12:48:33Z</time>
      </trkpt>
      <trkpt lat="43.62471" lon="6.38142">
        <ele>651.43</ele>
        <time>2016-05-03T12:48:39Z</time>
      </trkpt>
      <trkpt lat="43.62471" lon="6.38122">
        <ele>651.43</ele>
        <time>2016-05-03T12:48:52Z</time>
      </trkpt>
      <trkpt lat="43.62472" lon="6.38113">
        <ele>651.43</ele>
        <time>2016-05-03T12:48:58Z</time>
      </trkpt>
      <trkpt lat="43.62473" lon="6.38105">
        <ele>651.43</ele>
        <time>2016-05-03T12:49:03Z</time>
      </trkpt>
      <trkpt lat="43.62473" lon="6.38102">
        <ele>651.43</ele>
        <time>2016-05-03T12:49:05Z</time>
      </trkpt>
      <trkpt lat="43.62472" lon="6.38095">
        <ele>650.47</ele>
        <time>2016-05-03T12:49:10Z</time>
      </trkpt>
      <trkpt lat="43.62472" lon="6.38074">
        <ele>649.51</ele>
        <time>2016-05-03T12:49:24Z</time>
      </trkpt>
      <trkpt lat="43.62476" lon="6.38051">
        <ele>648.55</ele>
        <time>2016-05-03T12:49:40Z</time>
      </trkpt>
      <trkpt lat="43.62476" lon="6.38049">
        <ele>648.55</ele>
        <time>2016-05-03T12:49:41Z</time>
      </trkpt>
      <trkpt lat="43.62477" lon="6.38037">
        <ele>648.07</ele>
        <time>2016-05-03T12:49:49Z</time>
      </trkpt>
      <trkpt lat="43.62473" lon="6.38014">
        <ele>648.55</ele>
        <time>2016-05-03T12:50:04Z</time>
      </trkpt>
      <trkpt lat="43.6247" lon="6.38">
        <ele>647.59</ele>
        <time>2016-05-03T12:50:14Z</time>
      </trkpt>
      <trkpt lat="43.62462" lon="6.37979">
        <ele>646.14</ele>
        <time>2016-05-03T12:50:30Z</time>
      </trkpt>
      <trkpt lat="43.6246" lon="6.37956">
        <ele>646.14</ele>
        <time>2016-05-03T12:50:44Z</time>
      </trkpt>
      <trkpt lat="43.62463" lon="6.37936">
        <ele>646.14</ele>
        <time>2016-05-03T12:50:59Z</time>
      </trkpt>
      <trkpt lat="43.62464" lon="6.37933">
        <ele>646.62</ele>
        <time>2016-05-03T12:51:01Z</time>
      </trkpt>
      <trkpt lat="43.62469" lon="6.37909">
        <ele>647.59</ele>
        <time>2016-05-03T12:51:18Z</time>
      </trkpt>
      <trkpt lat="43.6247" lon="6.37897">
        <ele>647.59</ele>
        <time>2016-05-03T12:51:26Z</time>
      </trkpt>
      <trkpt lat="43.62473" lon="6.37877">
        <ele>647.59</ele>
        <time>2016-05-03T12:51:39Z</time>
      </trkpt>
      <trkpt lat="43.62477" lon="6.37862">
        <ele>647.59</ele>
        <time>2016-05-03T12:51:51Z</time>
      </trkpt>
      <trkpt lat="43.62484" lon="6.37839">
        <ele>646.62</ele>
        <time>2016-05-03T12:52:08Z</time>
      </trkpt>
      <trkpt lat="43.6249" lon="6.37819">
        <ele>646.62</ele>
        <time>2016-05-03T12:52:23Z</time>
      </trkpt>
      <trkpt lat="43.625" lon="6.37801">
        <ele>645.66</ele>
        <time>2016-05-03T12:52:38Z</time>
      </trkpt>
      <trkpt lat="43.6251" lon="6.37786">
        <ele>643.74</ele>
        <time>2016-05-03T12:52:52Z</time>
      </trkpt>
      <trkpt lat="43.62512" lon="6.37784">
        <ele>643.74</ele>
        <time>2016-05-03T12:52:54Z</time>
      </trkpt>
      <trkpt lat="43.62517" lon="6.37774">
        <ele>643.26</ele>
        <time>2016-05-03T12:53:02Z</time>
      </trkpt>
      <trkpt lat="43.62518" lon="6.37771">
        <ele>643.26</ele>
        <time>2016-05-03T12:53:05Z</time>
      </trkpt>
      <trkpt lat="43.62527" lon="6.37754">
        <ele>643.74</ele>
        <time>2016-05-03T12:53:18Z</time>
      </trkpt>
      <trkpt lat="43.62539" lon="6.37742">
        <ele>644.22</ele>
        <time>2016-05-03T12:53:32Z</time>
      </trkpt>
      <trkpt lat="43.62542" lon="6.37738">
        <ele>644.22</ele>
        <time>2016-05-03T12:53:36Z</time>
      </trkpt>
      <trkpt lat="43.62554" lon="6.37723">
        <ele>644.7</ele>
        <time>2016-05-03T12:53:51Z</time>
      </trkpt>
      <trkpt lat="43.62562" lon="6.37708">
        <ele>646.14</ele>
        <time>2016-05-03T12:54:04Z</time>
      </trkpt>
      <trkpt lat="43.6257" lon="6.37695">
        <ele>648.07</ele>
        <time>2016-05-03T12:54:17Z</time>
      </trkpt>
      <trkpt lat="43.62584" lon="6.37683">
        <ele>649.51</ele>
        <time>2016-05-03T12:54:33Z</time>
      </trkpt>
      <trkpt lat="43.62594" lon="6.37674">
        <ele>649.99</ele>
        <time>2016-05-03T12:54:45Z</time>
      </trkpt>
      <trkpt lat="43.62603" lon="6.3766">
        <ele>650.95</ele>
        <time>2016-05-03T12:54:59Z</time>
      </trkpt>
      <trkpt lat="43.62613" lon="6.37645">
        <ele>651.43</ele>
        <time>2016-05-03T12:55:13Z</time>
      </trkpt>
      <trkpt lat="43.62622" lon="6.37631">
        <ele>652.39</ele>
        <time>2016-05-03T12:55:27Z</time>
      </trkpt>
      <trkpt lat="43.62627" lon="6.37613">
        <ele>652.87</ele>
        <time>2016-05-03T12:55:44Z</time>
      </trkpt>
      <trkpt lat="43.62629" lon="6.37601">
        <ele>652.87</ele>
        <time>2016-05-03T12:55:59Z</time>
      </trkpt>
      <trkpt lat="43.62629" lon="6.37597">
        <ele>652.39</ele>
        <time>2016-05-03T12:56:23Z</time>
      </trkpt>
      <trkpt lat="43.62632" lon="6.3759">
        <ele>652.39</ele>
        <time>2016-05-03T12:56:41Z</time>
      </trkpt>
      <trkpt lat="43.62641" lon="6.37574">
        <ele>652.39</ele>
        <time>2016-05-03T12:56:56Z</time>
      </trkpt>
      <trkpt lat="43.62642" lon="6.37573">
        <ele>652.39</ele>
        <time>2016-05-03T12:56:57Z</time>
      </trkpt>
      <trkpt lat="43.62644" lon="6.37556">
        <ele>651.43</ele>
        <time>2016-05-03T12:57:10Z</time>
      </trkpt>
      <trkpt lat="43.62644" lon="6.3755">
        <ele>650.95</ele>
        <time>2016-05-03T12:57:25Z</time>
      </trkpt>
      <trkpt lat="43.62645" lon="6.37549">
        <ele>650.47</ele>
        <time>2016-05-03T12:57:26Z</time>
      </trkpt>
      <trkpt lat="43.62647" lon="6.37535">
        <ele>650.47</ele>
        <time>2016-05-03T12:57:36Z</time>
      </trkpt>
      <trkpt lat="43.62648" lon="6.37529">
        <ele>650.47</ele>
        <time>2016-05-03T12:57:41Z</time>
      </trkpt>
      <trkpt lat="43.6265" lon="6.37514">
        <ele>649.51</ele>
        <time>2016-05-03T12:57:52Z</time>
      </trkpt>
      <trkpt lat="43.62656" lon="6.3749">
        <ele>649.03</ele>
        <time>2016-05-03T12:58:08Z</time>
      </trkpt>
      <trkpt lat="43.62658" lon="6.37484">
        <ele>648.55</ele>
        <time>2016-05-03T12:58:14Z</time>
      </trkpt>
      <trkpt lat="43.62666" lon="6.37458">
        <ele>647.1</ele>
        <time>2016-05-03T12:58:33Z</time>
      </trkpt>
      <trkpt lat="43.62667" lon="6.37451">
        <ele>646.14</ele>
        <time>2016-05-03T12:58:37Z</time>
      </trkpt>
      <trkpt lat="43.62665" lon="6.37449">
        <ele>645.66</ele>
        <time>2016-05-03T12:58:39Z</time>
      </trkpt>
      <trkpt lat="43.62653" lon="6.37453">
        <ele>645.18</ele>
        <time>2016-05-03T12:58:52Z</time>
      </trkpt>
      <trkpt lat="43.62653" lon="6.37452">
        <ele>645.18</ele>
        <time>2016-05-03T12:59:08Z</time>
      </trkpt>
      <trkpt lat="43.62654" lon="6.37453">
        <ele>646.14</ele>
        <time>2016-05-03T12:59:27Z</time>
      </trkpt>
      <trkpt lat="43.62653" lon="6.37452">
        <ele>646.14</ele>
        <time>2016-05-03T12:59:57Z</time>
      </trkpt>
      <trkpt lat="43.62655" lon="6.37452">
        <ele>646.14</ele>
        <time>2016-05-03T13:00:13Z</time>
      </trkpt>
      <trkpt lat="43.62658" lon="6.37449">
        <ele>646.14</ele>
        <time>2016-05-03T13:00:24Z</time>
      </trkpt>
      <trkpt lat="43.62663" lon="6.37442">
        <ele>646.14</ele>
        <time>2016-05-03T13:00:47Z</time>
      </trkpt>
      <trkpt lat="43.62664" lon="6.37443">
        <ele>646.62</ele>
        <time>2016-05-03T13:01:05Z</time>
      </trkpt>
      <trkpt lat="43.62663" lon="6.37443">
        <ele>646.62</ele>
        <time>2016-05-03T13:01:22Z</time>
      </trkpt>
      <trkpt lat="43.62663" lon="6.37442">
        <ele>646.62</ele>
        <time>2016-05-03T13:01:48Z</time>
      </trkpt>
      <trkpt lat="43.62663" lon="6.37442">
        <ele>646.14</ele>
        <time>2016-05-03T13:02:18Z</time>
      </trkpt>
      <trkpt lat="43.62665" lon="6.37441">
        <ele>646.62</ele>
        <time>2016-05-03T13:02:46Z</time>
      </trkpt>
      <trkpt lat="43.62669" lon="6.37433">
        <ele>647.1</ele>
        <time>2016-05-03T13:03:03Z</time>
      </trkpt>
      <trkpt lat="43.62671" lon="6.37429">
        <ele>647.1</ele>
        <time>2016-05-03T13:03:07Z</time>
      </trkpt>
      <trkpt lat="43.62675" lon="6.37417">
        <ele>646.14</ele>
        <time>2016-05-03T13:03:17Z</time>
      </trkpt>
      <trkpt lat="43.62678" lon="6.37398">
        <ele>644.7</ele>
        <time>2016-05-03T13:03:31Z</time>
      </trkpt>
      <trkpt lat="43.62681" lon="6.37381">
        <ele>643.26</ele>
        <time>2016-05-03T13:03:44Z</time>
      </trkpt>
      <trkpt lat="43.62681" lon="6.37377">
        <ele>643.26</ele>
        <time>2016-05-03T13:03:47Z</time>
      </trkpt>
      <trkpt lat="43.62682" lon="6.37369">
        <ele>642.78</ele>
        <time>2016-05-03T13:03:52Z</time>
      </trkpt>
      <trkpt lat="43.62683" lon="6.3736">
        <ele>642.78</ele>
        <time>2016-05-03T13:03:58Z</time>
      </trkpt>
      <trkpt lat="43.62682" lon="6.37357">
        <ele>642.3</ele>
        <time>2016-05-03T13:04:00Z</time>
      </trkpt>
      <trkpt lat="43.62684" lon="6.37337">
        <ele>640.86</ele>
        <time>2016-05-03T13:04:14Z</time>
      </trkpt>
      <trkpt lat="43.62684" lon="6.37318">
        <ele>640.38</ele>
        <time>2016-05-03T13:04:28Z</time>
      </trkpt>
      <trkpt lat="43.62684" lon="6.37309">
        <ele>639.41</ele>
        <time>2016-05-03T13:04:35Z</time>
      </trkpt>
      <trkpt lat="43.62685" lon="6.37292">
        <ele>638.93</ele>
        <time>2016-05-03T13:04:46Z</time>
      </trkpt>
      <trkpt lat="43.62686" lon="6.37286">
        <ele>638.45</ele>
        <time>2016-05-03T13:04:52Z</time>
      </trkpt>
      <trkpt lat="43.62686" lon="6.37274">
        <ele>637.97</ele>
        <time>2016-05-03T13:05:00Z</time>
      </trkpt>
      <trkpt lat="43.62689" lon="6.37256">
        <ele>637.01</ele>
        <time>2016-05-03T13:05:13Z</time>
      </trkpt>
      <trkpt lat="43.62692" lon="6.3724">
        <ele>637.01</ele>
        <time>2016-05-03T13:05:25Z</time>
      </trkpt>
      <trkpt lat="43.62693" lon="6.37231">
        <ele>637.01</ele>
        <time>2016-05-03T13:05:31Z</time>
      </trkpt>
      <trkpt lat="43.62693" lon="6.37226">
        <ele>636.53</ele>
        <time>2016-05-03T13:05:34Z</time>
      </trkpt>
      <trkpt lat="43.62692" lon="6.37211">
        <ele>635.57</ele>
        <time>2016-05-03T13:05:45Z</time>
      </trkpt>
      <trkpt lat="43.6269" lon="6.37188">
        <ele>635.57</ele>
        <time>2016-05-03T13:05:59Z</time>
      </trkpt>
      <trkpt lat="43.62689" lon="6.37182">
        <ele>635.57</ele>
        <time>2016-05-03T13:06:03Z</time>
      </trkpt>
      <trkpt lat="43.62686" lon="6.37165">
        <ele>631.72</ele>
        <time>2016-05-03T13:06:14Z</time>
      </trkpt>
      <trkpt lat="43.62686" lon="6.37163">
        <ele>637.01</ele>
        <time>2016-05-03T13:06:15Z</time>
      </trkpt>
      <trkpt lat="43.62685" lon="6.37162">
        <ele>634.13</ele>
        <time>2016-05-03T13:06:16Z</time>
      </trkpt>
      <trkpt lat="43.62685" lon="6.37159">
        <ele>630.28</ele>
        <time>2016-05-03T13:06:18Z</time>
      </trkpt>
      <trkpt lat="43.62685" lon="6.37157">
        <ele>640.38</ele>
        <time>2016-05-03T13:06:19Z</time>
      </trkpt>
      <trkpt lat="43.62685" lon="6.37155">
        <ele>634.61</ele>
        <time>2016-05-03T13:06:20Z</time>
      </trkpt>
      <trkpt lat="43.62684" lon="6.37151">
        <ele>637.49</ele>
        <time>2016-05-03T13:06:23Z</time>
      </trkpt>
      <trkpt lat="43.62684" lon="6.37146">
        <ele>634.13</ele>
        <time>2016-05-03T13:06:26Z</time>
      </trkpt>
      <trkpt lat="43.62684" lon="6.37131">
        <ele>634.61</ele>
        <time>2016-05-03T13:06:36Z</time>
      </trkpt>
      <trkpt lat="43.62685" lon="6.37118">
        <ele>634.61</ele>
        <time>2016-05-03T13:06:46Z</time>
      </trkpt>
      <trkpt lat="43.62685" lon="6.3711">
        <ele>634.13</ele>
        <time>2016-05-03T13:06:51Z</time>
      </trkpt>
      <trkpt lat="43.6269" lon="6.37095">
        <ele>634.13</ele>
        <time>2016-05-03T13:07:01Z</time>
      </trkpt>
      <trkpt lat="43.6269" lon="6.37079">
        <ele>633.65</ele>
        <time>2016-05-03T13:07:12Z</time>
      </trkpt>
      <trkpt lat="43.62692" lon="6.37058">
        <ele>632.68</ele>
        <time>2016-05-03T13:07:26Z</time>
      </trkpt>
      <trkpt lat="43.62692" lon="6.37053">
        <ele>632.68</ele>
        <time>2016-05-03T13:07:29Z</time>
      </trkpt>
      <trkpt lat="43.62693" lon="6.37051">
        <ele>632.68</ele>
        <time>2016-05-03T13:07:31Z</time>
      </trkpt>
      <trkpt lat="43.62693" lon="6.37048">
        <ele>632.68</ele>
        <time>2016-05-03T13:07:33Z</time>
      </trkpt>
      <trkpt lat="43.62692" lon="6.37033">
        <ele>632.2</ele>
        <time>2016-05-03T13:07:42Z</time>
      </trkpt>
      <trkpt lat="43.62692" lon="6.37021">
        <ele>632.2</ele>
        <time>2016-05-03T13:07:49Z</time>
      </trkpt>
      <trkpt lat="43.62695" lon="6.37014">
        <ele>632.68</ele>
        <time>2016-05-03T13:07:55Z</time>
      </trkpt>
      <trkpt lat="43.62696" lon="6.36999">
        <ele>631.24</ele>
        <time>2016-05-03T13:08:04Z</time>
      </trkpt>
      <trkpt lat="43.62699" lon="6.36993">
        <ele>630.76</ele>
        <time>2016-05-03T13:08:09Z</time>
      </trkpt>
      <trkpt lat="43.62699" lon="6.36977">
        <ele>629.8</ele>
        <time>2016-05-03T13:08:20Z</time>
      </trkpt>
      <trkpt lat="43.627" lon="6.36971">
        <ele>629.8</ele>
        <time>2016-05-03T13:08:23Z</time>
      </trkpt>
      <trkpt lat="43.62703" lon="6.3696">
        <ele>629.8</ele>
        <time>2016-05-03T13:08:31Z</time>
      </trkpt>
      <trkpt lat="43.62704" lon="6.36955">
        <ele>629.8</ele>
        <time>2016-05-03T13:08:34Z</time>
      </trkpt>
      <trkpt lat="43.62712" lon="6.36936">
        <ele>629.32</ele>
        <time>2016-05-03T13:08:49Z</time>
      </trkpt>
      <trkpt lat="43.62713" lon="6.36933">
        <ele>629.32</ele>
        <time>2016-05-03T13:08:51Z</time>
      </trkpt>
      <trkpt lat="43.62717" lon="6.3693">
        <ele>629.32</ele>
        <time>2016-05-03T13:08:55Z</time>
      </trkpt>
      <trkpt lat="43.62723" lon="6.36901">
        <ele>629.32</ele>
        <time>2016-05-03T13:09:13Z</time>
      </trkpt>
      <trkpt lat="43.62724" lon="6.36891">
        <ele>629.8</ele>
        <time>2016-05-03T13:09:19Z</time>
      </trkpt>
      <trkpt lat="43.62728" lon="6.36867">
        <ele>629.8</ele>
        <time>2016-05-03T13:09:34Z</time>
      </trkpt>
      <trkpt lat="43.62729" lon="6.36863">
        <ele>629.8</ele>
        <time>2016-05-03T13:09:37Z</time>
      </trkpt>
      <trkpt lat="43.62734" lon="6.36841">
        <ele>628.84</ele>
        <time>2016-05-03T13:09:52Z</time>
      </trkpt>
      <trkpt lat="43.62742" lon="6.36822">
        <ele>629.32</ele>
        <time>2016-05-03T13:10:06Z</time>
      </trkpt>
      <trkpt lat="43.62747" lon="6.36802">
        <ele>628.84</ele>
        <time>2016-05-03T13:10:20Z</time>
      </trkpt>
      <trkpt lat="43.62755" lon="6.36777">
        <ele>629.32</ele>
        <time>2016-05-03T13:10:37Z</time>
      </trkpt>
      <trkpt lat="43.62762" lon="6.36749">
        <ele>630.28</ele>
        <time>2016-05-03T13:10:54Z</time>
      </trkpt>
      <trkpt lat="43.62767" lon="6.3673">
        <ele>631.72</ele>
        <time>2016-05-03T13:11:08Z</time>
      </trkpt>
      <trkpt lat="43.6277" lon="6.36719">
        <ele>632.2</ele>
        <time>2016-05-03T13:11:16Z</time>
      </trkpt>
      <trkpt lat="43.62772" lon="6.36712">
        <ele>632.68</ele>
        <time>2016-05-03T13:11:21Z</time>
      </trkpt>
      <trkpt lat="43.62776" lon="6.367">
        <ele>633.17</ele>
        <time>2016-05-03T13:11:30Z</time>
      </trkpt>
      <trkpt lat="43.62779" lon="6.36688">
        <ele>634.61</ele>
        <time>2016-05-03T13:11:39Z</time>
      </trkpt>
      <trkpt lat="43.62781" lon="6.36685">
        <ele>634.61</ele>
        <time>2016-05-03T13:11:42Z</time>
      </trkpt>
      <trkpt lat="43.62782" lon="6.36681">
        <ele>635.09</ele>
        <time>2016-05-03T13:11:45Z</time>
      </trkpt>
      <trkpt lat="43.62786" lon="6.36674">
        <ele>635.57</ele>
        <time>2016-05-03T13:11:50Z</time>
      </trkpt>
      <trkpt lat="43.62792" lon="6.36653">
        <ele>637.01</ele>
        <time>2016-05-03T13:12:05Z</time>
      </trkpt>
      <trkpt lat="43.62799" lon="6.36638">
        <ele>638.45</ele>
        <time>2016-05-03T13:12:18Z</time>
      </trkpt>
      <trkpt lat="43.628" lon="6.36635">
        <ele>638.45</ele>
        <time>2016-05-03T13:12:21Z</time>
      </trkpt>
      <trkpt lat="43.62803" lon="6.36632">
        <ele>638.45</ele>
        <time>2016-05-03T13:12:25Z</time>
      </trkpt>
      <trkpt lat="43.62811" lon="6.36619">
        <ele>639.41</ele>
        <time>2016-05-03T13:12:41Z</time>
      </trkpt>
      <trkpt lat="43.62811" lon="6.36618">
        <ele>639.41</ele>
        <time>2016-05-03T13:12:42Z</time>
      </trkpt>
      <trkpt lat="43.62812" lon="6.36606">
        <ele>639.89</ele>
        <time>2016-05-03T13:12:51Z</time>
      </trkpt>
      <trkpt lat="43.62814" lon="6.366">
        <ele>639.89</ele>
        <time>2016-05-03T13:12:55Z</time>
      </trkpt>
      <trkpt lat="43.62816" lon="6.36583">
        <ele>639.89</ele>
        <time>2016-05-03T13:13:08Z</time>
      </trkpt>
      <trkpt lat="43.6282" lon="6.36563">
        <ele>640.38</ele>
        <time>2016-05-03T13:13:22Z</time>
      </trkpt>
      <trkpt lat="43.6282" lon="6.36541">
        <ele>640.38</ele>
        <time>2016-05-03T13:13:37Z</time>
      </trkpt>
      <trkpt lat="43.62824" lon="6.3651">
        <ele>640.38</ele>
        <time>2016-05-03T13:13:56Z</time>
      </trkpt>
      <trkpt lat="43.6283" lon="6.36493">
        <ele>639.41</ele>
        <time>2016-05-03T13:14:10Z</time>
      </trkpt>
      <trkpt lat="43.62835" lon="6.36467">
        <ele>639.41</ele>
        <time>2016-05-03T13:14:27Z</time>
      </trkpt>
      <trkpt lat="43.62835" lon="6.36458">
        <ele>639.41</ele>
        <time>2016-05-03T13:14:32Z</time>
      </trkpt>
      <trkpt lat="43.62833" lon="6.36451">
        <ele>639.41</ele>
        <time>2016-05-03T13:14:36Z</time>
      </trkpt>
      <trkpt lat="43.62824" lon="6.36432">
        <ele>638.93</ele>
        <time>2016-05-03T13:14:49Z</time>
      </trkpt>
      <trkpt lat="43.62808" lon="6.36422">
        <ele>639.41</ele>
        <time>2016-05-03T13:15:04Z</time>
      </trkpt>
      <trkpt lat="43.62803" lon="6.36422">
        <ele>639.41</ele>
        <time>2016-05-03T13:15:07Z</time>
      </trkpt>
      <trkpt lat="43.62787" lon="6.36415">
        <ele>639.89</ele>
        <time>2016-05-03T13:15:22Z</time>
      </trkpt>
      <trkpt lat="43.62784" lon="6.36393">
        <ele>640.86</ele>
        <time>2016-05-03T13:15:38Z</time>
      </trkpt>
      <trkpt lat="43.62788" lon="6.36375">
        <ele>641.34</ele>
        <time>2016-05-03T13:15:50Z</time>
      </trkpt>
      <trkpt lat="43.62789" lon="6.36372">
        <ele>641.34</ele>
        <time>2016-05-03T13:15:52Z</time>
      </trkpt>
      <trkpt lat="43.6279" lon="6.36363">
        <ele>641.34</ele>
        <time>2016-05-03T13:15:58Z</time>
      </trkpt>
      <trkpt lat="43.62785" lon="6.36351">
        <ele>640.86</ele>
        <time>2016-05-03T13:16:13Z</time>
      </trkpt>
      <trkpt lat="43.62784" lon="6.3635">
        <ele>640.86</ele>
        <time>2016-05-03T13:16:37Z</time>
      </trkpt>
      <trkpt lat="43.62785" lon="6.3635">
        <ele>641.34</ele>
        <time>2016-05-03T13:16:53Z</time>
      </trkpt>
      <trkpt lat="43.62787" lon="6.3635">
        <ele>641.34</ele>
        <time>2016-05-03T13:17:19Z</time>
      </trkpt>
      <trkpt lat="43.62788" lon="6.36349">
        <ele>641.34</ele>
        <time>2016-05-03T13:17:54Z</time>
      </trkpt>
      <trkpt lat="43.62788" lon="6.36349">
        <ele>640.86</ele>
        <time>2016-05-03T13:18:20Z</time>
      </trkpt>
      <trkpt lat="43.62788" lon="6.36349">
        <ele>641.82</ele>
        <time>2016-05-03T13:18:51Z</time>
      </trkpt>
      <trkpt lat="43.62787" lon="6.36349">
        <ele>641.34</ele>
        <time>2016-05-03T13:19:17Z</time>
      </trkpt>
      <trkpt lat="43.62786" lon="6.36349">
        <ele>641.82</ele>
        <time>2016-05-03T13:19:40Z</time>
      </trkpt>
      <trkpt lat="43.62786" lon="6.36349">
        <ele>640.86</ele>
        <time>2016-05-03T13:20:12Z</time>
      </trkpt>
      <trkpt lat="43.62786" lon="6.36349">
        <ele>640.86</ele>
        <time>2016-05-03T13:20:37Z</time>
      </trkpt>
      <trkpt lat="43.62782" lon="6.3635">
        <ele>640.86</ele>
        <time>2016-05-03T13:20:49Z</time>
      </trkpt>
      <trkpt lat="43.62784" lon="6.36352">
        <ele>641.34</ele>
        <time>2016-05-03T13:20:54Z</time>
      </trkpt>
      <trkpt lat="43.62785" lon="6.36351">
        <ele>641.34</ele>
        <time>2016-05-03T13:21:09Z</time>
      </trkpt>
      <trkpt lat="43.62785" lon="6.3635">
        <ele>640.86</ele>
        <time>2016-05-03T13:21:24Z</time>
      </trkpt>
      <trkpt lat="43.62784" lon="6.36349">
        <ele>640.86</ele>
        <time>2016-05-03T13:21:50Z</time>
      </trkpt>
      <trkpt lat="43.62787" lon="6.36347">
        <ele>641.34</ele>
        <time>2016-05-03T13:21:54Z</time>
      </trkpt>
      <trkpt lat="43.62795" lon="6.36332">
        <ele>642.3</ele>
        <time>2016-05-03T13:22:06Z</time>
      </trkpt>
      <trkpt lat="43.62796" lon="6.36328">
        <ele>641.82</ele>
        <time>2016-05-03T13:22:09Z</time>
      </trkpt>
      <trkpt lat="43.62799" lon="6.36305">
        <ele>643.26</ele>
        <time>2016-05-03T13:22:24Z</time>
      </trkpt>
      <trkpt lat="43.62801" lon="6.36298">
        <ele>643.74</ele>
        <time>2016-05-03T13:22:28Z</time>
      </trkpt>
      <trkpt lat="43.62811" lon="6.36277">
        <ele>643.74</ele>
        <time>2016-05-03T13:22:44Z</time>
      </trkpt>
      <trkpt lat="43.62809" lon="6.36271">
        <ele>642.78</ele>
        <time>2016-05-03T13:22:50Z</time>
      </trkpt>
      <trkpt lat="43.6279" lon="6.36282">
        <ele>641.82</ele>
        <time>2016-05-03T13:23:05Z</time>
      </trkpt>
      <trkpt lat="43.62781" lon="6.36294">
        <ele>641.34</ele>
        <time>2016-05-03T13:23:18Z</time>
      </trkpt>
      <trkpt lat="43.62773" lon="6.36303">
        <ele>640.38</ele>
        <time>2016-05-03T13:23:28Z</time>
      </trkpt>
      <trkpt lat="43.62767" lon="6.36308">
        <ele>639.89</ele>
        <time>2016-05-03T13:23:41Z</time>
      </trkpt>
      <trkpt lat="43.62764" lon="6.3631">
        <ele>639.41</ele>
        <time>2016-05-03T13:23:54Z</time>
      </trkpt>
      <trkpt lat="43.62761" lon="6.36312">
        <ele>639.89</ele>
        <time>2016-05-03T13:23:57Z</time>
      </trkpt>
      <trkpt lat="43.62759" lon="6.36314">
        <ele>638.93</ele>
        <time>2016-05-03T13:24:00Z</time>
      </trkpt>
      <trkpt lat="43.62749" lon="6.36321">
        <ele>638.45</ele>
        <time>2016-05-03T13:24:11Z</time>
      </trkpt>
      <trkpt lat="43.62735" lon="6.36327">
        <ele>637.01</ele>
        <time>2016-05-03T13:24:26Z</time>
      </trkpt>
      <trkpt lat="43.62718" lon="6.3633">
        <ele>635.57</ele>
        <time>2016-05-03T13:24:41Z</time>
      </trkpt>
      <trkpt lat="43.62703" lon="6.36334">
        <ele>635.57</ele>
        <time>2016-05-03T13:24:54Z</time>
      </trkpt>
      <trkpt lat="43.6269" lon="6.36346">
        <ele>635.09</ele>
        <time>2016-05-03T13:25:09Z</time>
      </trkpt>
      <trkpt lat="43.62678" lon="6.36357">
        <ele>633.65</ele>
        <time>2016-05-03T13:25:23Z</time>
      </trkpt>
      <trkpt lat="43.62669" lon="6.36363">
        <ele>633.17</ele>
        <time>2016-05-03T13:25:31Z</time>
      </trkpt>
      <trkpt lat="43.62667" lon="6.36366">
        <ele>633.17</ele>
        <time>2016-05-03T13:25:34Z</time>
      </trkpt>
      <trkpt lat="43.6266" lon="6.36375">
        <ele>632.2</ele>
        <time>2016-05-03T13:25:41Z</time>
      </trkpt>
      <trkpt lat="43.62653" lon="6.36381">
        <ele>631.72</ele>
        <time>2016-05-03T13:25:48Z</time>
      </trkpt>
      <trkpt lat="43.62639" lon="6.36397">
        <ele>630.28</ele>
        <time>2016-05-03T13:26:04Z</time>
      </trkpt>
      <trkpt lat="43.62628" lon="6.36409">
        <ele>628.84</ele>
        <time>2016-05-03T13:26:17Z</time>
      </trkpt>
      <trkpt lat="43.62617" lon="6.36421">
        <ele>628.36</ele>
        <time>2016-05-03T13:26:30Z</time>
      </trkpt>
      <trkpt lat="43.62613" lon="6.36426">
        <ele>627.88</ele>
        <time>2016-05-03T13:26:34Z</time>
      </trkpt>
      <trkpt lat="43.62599" lon="6.36441">
        <ele>626.44</ele>
        <time>2016-05-03T13:26:49Z</time>
      </trkpt>
      <trkpt lat="43.62585" lon="6.36452">
        <ele>625.96</ele>
        <time>2016-05-03T13:27:03Z</time>
      </trkpt>
      <trkpt lat="43.62576" lon="6.36455">
        <ele>625.47</ele>
        <time>2016-05-03T13:27:15Z</time>
      </trkpt>
      <trkpt lat="43.62574" lon="6.36456">
        <ele>624.99</ele>
        <time>2016-05-03T13:27:36Z</time>
      </trkpt>
      <trkpt lat="43.62572" lon="6.36457">
        <ele>624.51</ele>
        <time>2016-05-03T13:27:51Z</time>
      </trkpt>
      <trkpt lat="43.62573" lon="6.36457">
        <ele>624.99</ele>
        <time>2016-05-03T13:28:19Z</time>
      </trkpt>
      <trkpt lat="43.62574" lon="6.36459">
        <ele>624.99</ele>
        <time>2016-05-03T13:28:32Z</time>
      </trkpt>
      <trkpt lat="43.62575" lon="6.3646">
        <ele>625.47</ele>
        <time>2016-05-03T13:28:44Z</time>
      </trkpt>
      <trkpt lat="43.62575" lon="6.36459">
        <ele>625.47</ele>
        <time>2016-05-03T13:29:13Z</time>
      </trkpt>
      <trkpt lat="43.62573" lon="6.36458">
        <ele>623.55</ele>
        <time>2016-05-03T13:29:38Z</time>
      </trkpt>
      <trkpt lat="43.6257" lon="6.36456">
        <ele>624.03</ele>
        <time>2016-05-03T13:29:50Z</time>
      </trkpt>
      <trkpt lat="43.62574" lon="6.36459">
        <ele>624.51</ele>
        <time>2016-05-03T13:30:09Z</time>
      </trkpt>
      <trkpt lat="43.62571" lon="6.36455">
        <ele>624.03</ele>
        <time>2016-05-03T13:30:20Z</time>
      </trkpt>
      <trkpt lat="43.62565" lon="6.36453">
        <ele>623.55</ele>
        <time>2016-05-03T13:30:36Z</time>
      </trkpt>
      <trkpt lat="43.62561" lon="6.36452">
        <ele>623.07</ele>
        <time>2016-05-03T13:30:41Z</time>
      </trkpt>
      <trkpt lat="43.62556" lon="6.36452">
        <ele>623.55</ele>
        <time>2016-05-03T13:30:45Z</time>
      </trkpt>
      <trkpt lat="43.62553" lon="6.3645">
        <ele>623.07</ele>
        <time>2016-05-03T13:30:48Z</time>
      </trkpt>
      <trkpt lat="43.6254" lon="6.36443">
        <ele>622.59</ele>
        <time>2016-05-03T13:31:01Z</time>
      </trkpt>
      <trkpt lat="43.62527" lon="6.36436">
        <ele>622.11</ele>
        <time>2016-05-03T13:31:13Z</time>
      </trkpt>
      <trkpt lat="43.62514" lon="6.3643">
        <ele>621.63</ele>
        <time>2016-05-03T13:31:25Z</time>
      </trkpt>
      <trkpt lat="43.62496" lon="6.36426">
        <ele>621.15</ele>
        <time>2016-05-03T13:31:40Z</time>
      </trkpt>
      <trkpt lat="43.62481" lon="6.3642">
        <ele>620.67</ele>
        <time>2016-05-03T13:31:52Z</time>
      </trkpt>
      <trkpt lat="43.62472" lon="6.36418">
        <ele>619.71</ele>
        <time>2016-05-03T13:32:00Z</time>
      </trkpt>
      <trkpt lat="43.6246" lon="6.36414">
        <ele>619.23</ele>
        <time>2016-05-03T13:32:09Z</time>
      </trkpt>
      <trkpt lat="43.62441" lon="6.36407">
        <ele>618.26</ele>
        <time>2016-05-03T13:32:25Z</time>
      </trkpt>
      <trkpt lat="43.62424" lon="6.36397">
        <ele>617.3</ele>
        <time>2016-05-03T13:32:41Z</time>
      </trkpt>
      <trkpt lat="43.62422" lon="6.36396">
        <ele>616.82</ele>
        <time>2016-05-03T13:32:59Z</time>
      </trkpt>
      <trkpt lat="43.62416" lon="6.36394">
        <ele>616.82</ele>
        <time>2016-05-03T13:33:12Z</time>
      </trkpt>
      <trkpt lat="43.62407" lon="6.36391">
        <ele>616.34</ele>
        <time>2016-05-03T13:33:28Z</time>
      </trkpt>
      <trkpt lat="43.62398" lon="6.36386">
        <ele>615.86</ele>
        <time>2016-05-03T13:33:43Z</time>
      </trkpt>
      <trkpt lat="43.62389" lon="6.36383">
        <ele>614.42</ele>
        <time>2016-05-03T13:33:57Z</time>
      </trkpt>
      <trkpt lat="43.62388" lon="6.36383">
        <ele>615.38</ele>
        <time>2016-05-03T13:33:58Z</time>
      </trkpt>
      <trkpt lat="43.62381" lon="6.36387">
        <ele>615.38</ele>
        <time>2016-05-03T13:34:12Z</time>
      </trkpt>
      <trkpt lat="43.62381" lon="6.36391">
        <ele>614.9</ele>
        <time>2016-05-03T13:34:28Z</time>
      </trkpt>
      <trkpt lat="43.62382" lon="6.36392">
        <ele>614.9</ele>
        <time>2016-05-03T13:34:54Z</time>
      </trkpt>
      <trkpt lat="43.62383" lon="6.36392">
        <ele>615.38</ele>
        <time>2016-05-03T13:35:20Z</time>
      </trkpt>
      <trkpt lat="43.62383" lon="6.36392">
        <ele>614.9</ele>
        <time>2016-05-03T13:35:39Z</time>
      </trkpt>
      <trkpt lat="43.62382" lon="6.36392">
        <ele>614.9</ele>
        <time>2016-05-03T13:36:17Z</time>
      </trkpt>
      <trkpt lat="43.62382" lon="6.36393">
        <ele>614.9</ele>
        <time>2016-05-03T13:36:41Z</time>
      </trkpt>
      <trkpt lat="43.62382" lon="6.36392">
        <ele>614.42</ele>
        <time>2016-05-03T13:37:18Z</time>
      </trkpt>
      <trkpt lat="43.62382" lon="6.36393">
        <ele>614.9</ele>
        <time>2016-05-03T13:37:54Z</time>
      </trkpt>
      <trkpt lat="43.62383" lon="6.36393">
        <ele>614.9</ele>
        <time>2016-05-03T13:38:28Z</time>
      </trkpt>
      <trkpt lat="43.62383" lon="6.36393">
        <ele>614.9</ele>
        <time>2016-05-03T13:39:04Z</time>
      </trkpt>
      <trkpt lat="43.62382" lon="6.36394">
        <ele>614.9</ele>
        <time>2016-05-03T13:39:35Z</time>
      </trkpt>
      <trkpt lat="43.62383" lon="6.36394">
        <ele>614.9</ele>
        <time>2016-05-03T13:40:12Z</time>
      </trkpt>
      <trkpt lat="43.62383" lon="6.36394">
        <ele>614.9</ele>
        <time>2016-05-03T13:40:41Z</time>
      </trkpt>
      <trkpt lat="43.62383" lon="6.36395">
        <ele>614.9</ele>
        <time>2016-05-03T13:41:11Z</time>
      </trkpt>
      <trkpt lat="43.62384" lon="6.36396">
        <ele>614.9</ele>
        <time>2016-05-03T13:41:43Z</time>
      </trkpt>
      <trkpt lat="43.62384" lon="6.36396">
        <ele>614.9</ele>
        <time>2016-05-03T13:42:07Z</time>
      </trkpt>
      <trkpt lat="43.62384" lon="6.36396">
        <ele>614.42</ele>
        <time>2016-05-03T13:42:38Z</time>
      </trkpt>
      <trkpt lat="43.62383" lon="6.36396">
        <ele>613.94</ele>
        <time>2016-05-03T13:43:08Z</time>
      </trkpt>
      <trkpt lat="43.62383" lon="6.36396">
        <ele>614.42</ele>
        <time>2016-05-03T13:43:41Z</time>
      </trkpt>
      <trkpt lat="43.62383" lon="6.36396">
        <ele>614.42</ele>
        <time>2016-05-03T13:44:12Z</time>
      </trkpt>
      <trkpt lat="43.62383" lon="6.36396">
        <ele>614.42</ele>
        <time>2016-05-03T13:44:43Z</time>
      </trkpt>
      <trkpt lat="43.62384" lon="6.36396">
        <ele>614.42</ele>
        <time>2016-05-03T13:45:13Z</time>
      </trkpt>
      <trkpt lat="43.62384" lon="6.36396">
        <ele>613.94</ele>
        <time>2016-05-03T13:45:43Z</time>
      </trkpt>
      <trkpt lat="43.62383" lon="6.36397">
        <ele>613.94</ele>
        <time>2016-05-03T13:46:16Z</time>
      </trkpt>
      <trkpt lat="43.62382" lon="6.36398">
        <ele>613.94</ele>
        <time>2016-05-03T13:46:41Z</time>
      </trkpt>
      <trkpt lat="43.6238" lon="6.36398">
        <ele>613.94</ele>
        <time>2016-05-03T13:47:16Z</time>
      </trkpt>
      <trkpt lat="43.62379" lon="6.36399">
        <ele>614.42</ele>
        <time>2016-05-03T13:47:47Z</time>
      </trkpt>
      <trkpt lat="43.62378" lon="6.36399">
        <ele>613.94</ele>
        <time>2016-05-03T13:48:24Z</time>
      </trkpt>
      <trkpt lat="43.62377" lon="6.36399">
        <ele>613.94</ele>
        <time>2016-05-03T13:49:00Z</time>
      </trkpt>
      <trkpt lat="43.62377" lon="6.36398">
        <ele>614.42</ele>
        <time>2016-05-03T13:49:28Z</time>
      </trkpt>
      <trkpt lat="43.62377" lon="6.36399">
        <ele>613.94</ele>
        <time>2016-05-03T13:50:02Z</time>
      </trkpt>
      <trkpt lat="43.62377" lon="6.36406">
        <ele>613.94</ele>
        <time>2016-05-03T13:50:18Z</time>
      </trkpt>
      <trkpt lat="43.62377" lon="6.3642">
        <ele>613.94</ele>
        <time>2016-05-03T13:50:30Z</time>
      </trkpt>
      <trkpt lat="43.62375" lon="6.36438">
        <ele>613.46</ele>
        <time>2016-05-03T13:50:47Z</time>
      </trkpt>
      <trkpt lat="43.62379" lon="6.36456">
        <ele>613.94</ele>
        <time>2016-05-03T13:51:02Z</time>
      </trkpt>
      <trkpt lat="43.6238" lon="6.36458">
        <ele>613.46</ele>
        <time>2016-05-03T13:51:24Z</time>
      </trkpt>
      <trkpt lat="43.62382" lon="6.36461">
        <ele>613.46</ele>
        <time>2016-05-03T13:51:40Z</time>
      </trkpt>
      <trkpt lat="43.62384" lon="6.36462">
        <ele>613.46</ele>
        <time>2016-05-03T13:51:42Z</time>
      </trkpt>
      <trkpt lat="43.62396" lon="6.36477">
        <ele>612.98</ele>
        <time>2016-05-03T13:52:03Z</time>
      </trkpt>
      <trkpt lat="43.62375" lon="6.36466">
        <ele>613.46</ele>
        <time>2016-05-03T13:52:22Z</time>
      </trkpt>
      <trkpt lat="43.62382" lon="6.36456">
        <ele>614.42</ele>
        <time>2016-05-03T13:58:09Z</time>
      </trkpt>
      <trkpt lat="43.62382" lon="6.3646">
        <ele>613.46</ele>
        <time>2016-05-03T13:58:22Z</time>
      </trkpt>
      <trkpt lat="43.62386" lon="6.36474">
        <ele>613.46</ele>
        <time>2016-05-03T13:58:46Z</time>
      </trkpt>
      <trkpt lat="43.62387" lon="6.36477">
        <ele>608.65</ele>
        <time>2016-05-03T13:58:49Z</time>
      </trkpt>
      <trkpt lat="43.62387" lon="6.36478">
        <ele>614.42</ele>
        <time>2016-05-03T13:58:50Z</time>
      </trkpt>
      <trkpt lat="43.62401" lon="6.3649">
        <ele>615.38</ele>
        <time>2016-05-03T14:07:43Z</time>
      </trkpt>
      <trkpt lat="43.62382" lon="6.36455">
        <ele>614.9</ele>
        <time>2016-05-03T14:07:54Z</time>
      </trkpt>
      <trkpt lat="43.62376" lon="6.36462">
        <ele>615.38</ele>
        <time>2016-05-03T14:08:06Z</time>
      </trkpt>
      <trkpt lat="43.62376" lon="6.36467">
        <ele>614.9</ele>
        <time>2016-05-03T14:08:24Z</time>
      </trkpt>
      <trkpt lat="43.62379" lon="6.36474">
        <ele>615.38</ele>
        <time>2016-05-03T14:08:47Z</time>
      </trkpt>
      <trkpt lat="43.62375" lon="6.36473">
        <ele>615.38</ele>
        <time>2016-05-03T14:09:04Z</time>
      </trkpt>
      <trkpt lat="43.62375" lon="6.3647">
        <ele>615.38</ele>
        <time>2016-05-03T14:09:16Z</time>
      </trkpt>
      <trkpt lat="43.62377" lon="6.36469">
        <ele>615.38</ele>
        <time>2016-05-03T14:09:21Z</time>
      </trkpt>
      <trkpt lat="43.6238" lon="6.36463">
        <ele>615.38</ele>
        <time>2016-05-03T14:09:37Z</time>
      </trkpt>
      <trkpt lat="43.62379" lon="6.36461">
        <ele>615.38</ele>
        <time>2016-05-03T14:09:56Z</time>
      </trkpt>
      <trkpt lat="43.6238" lon="6.3646">
        <ele>615.38</ele>
        <time>2016-05-03T14:10:18Z</time>
      </trkpt>
      <trkpt lat="43.6238" lon="6.36459">
        <ele>615.38</ele>
        <time>2016-05-03T14:10:40Z</time>
      </trkpt>
      <trkpt lat="43.62379" lon="6.36459">
        <ele>615.86</ele>
        <time>2016-05-03T14:11:02Z</time>
      </trkpt>
      <trkpt lat="43.62379" lon="6.36458">
        <ele>615.86</ele>
        <time>2016-05-03T14:11:29Z</time>
      </trkpt>
      <trkpt lat="43.62379" lon="6.36458">
        <ele>615.86</ele>
        <time>2016-05-03T14:11:56Z</time>
      </trkpt>
      <trkpt lat="43.62378" lon="6.36458">
        <ele>615.38</ele>
        <time>2016-05-03T14:12:26Z</time>
      </trkpt>
      <trkpt lat="43.62379" lon="6.36459">
        <ele>615.86</ele>
        <time>2016-05-03T14:12:59Z</time>
      </trkpt>
      <trkpt lat="43.6238" lon="6.3646">
        <ele>615.86</ele>
        <time>2016-05-03T14:13:34Z</time>
      </trkpt>
      <trkpt lat="43.62379" lon="6.36459">
        <ele>615.86</ele>
        <time>2016-05-03T14:14:10Z</time>
      </trkpt>
      <trkpt lat="43.62379" lon="6.3646">
        <ele>616.34</ele>
        <time>2016-05-03T14:14:42Z</time>
      </trkpt>
      <trkpt lat="43.62378" lon="6.3646">
        <ele>615.86</ele>
        <time>2016-05-03T14:15:07Z</time>
      </trkpt>
      <trkpt lat="43.62378" lon="6.3646">
        <ele>616.34</ele>
        <time>2016-05-03T14:15:32Z</time>
      </trkpt>
      <trkpt lat="43.62378" lon="6.3646">
        <ele>615.86</ele>
        <time>2016-05-03T14:16:01Z</time>
      </trkpt>
      <trkpt lat="43.62378" lon="6.3646">
        <ele>616.34</ele>
        <time>2016-05-03T14:16:27Z</time>
      </trkpt>
      <trkpt lat="43.62378" lon="6.3646">
        <ele>616.34</ele>
        <time>2016-05-03T14:16:47Z</time>
      </trkpt>
      <trkpt lat="43.62378" lon="6.36461">
        <ele>616.34</ele>
        <time>2016-05-03T14:17:17Z</time>
      </trkpt>
      <trkpt lat="43.6238" lon="6.36459">
        <ele>616.34</ele>
        <time>2016-05-03T14:17:35Z</time>
      </trkpt>
      <trkpt lat="43.6238" lon="6.36448">
        <ele>616.34</ele>
        <time>2016-05-03T14:17:50Z</time>
      </trkpt>
      <trkpt lat="43.62391" lon="6.36449">
        <ele>617.3</ele>
        <time>2016-05-03T14:18:04Z</time>
      </trkpt>
      <trkpt lat="43.6239" lon="6.36459">
        <ele>617.3</ele>
        <time>2016-05-03T14:18:17Z</time>
      </trkpt>
      <trkpt lat="43.62391" lon="6.36469">
        <ele>617.3</ele>
        <time>2016-05-03T14:18:28Z</time>
      </trkpt>
      <trkpt lat="43.62391" lon="6.36481">
        <ele>617.78</ele>
        <time>2016-05-03T14:18:42Z</time>
      </trkpt>
      <trkpt lat="43.6239" lon="6.36493">
        <ele>616.82</ele>
        <time>2016-05-03T14:18:58Z</time>
      </trkpt>
      <trkpt lat="43.6239" lon="6.36493">
        <ele>616.82</ele>
        <time>2016-05-03T14:19:12Z</time>
      </trkpt>
      <trkpt lat="43.6239" lon="6.36493">
        <ele>616.82</ele>
        <time>2016-05-03T14:19:37Z</time>
      </trkpt>
      <trkpt lat="43.6239" lon="6.36493">
        <ele>616.82</ele>
        <time>2016-05-03T14:20:06Z</time>
      </trkpt>
      <trkpt lat="43.62389" lon="6.36493">
        <ele>616.82</ele>
        <time>2016-05-03T14:20:36Z</time>
      </trkpt>
      <trkpt lat="43.62389" lon="6.36492">
        <ele>616.82</ele>
        <time>2016-05-03T14:21:02Z</time>
      </trkpt>
      <trkpt lat="43.62389" lon="6.36492">
        <ele>616.82</ele>
        <time>2016-05-03T14:21:28Z</time>
      </trkpt>
      <trkpt lat="43.62392" lon="6.36489">
        <ele>617.3</ele>
        <time>2016-05-03T14:21:44Z</time>
      </trkpt>
      <trkpt lat="43.62395" lon="6.36479">
        <ele>617.78</ele>
        <time>2016-05-03T14:21:53Z</time>
      </trkpt>
      <trkpt lat="43.62395" lon="6.36471">
        <ele>617.78</ele>
        <time>2016-05-03T14:22:00Z</time>
      </trkpt>
      <trkpt lat="43.62393" lon="6.3646">
        <ele>617.78</ele>
        <time>2016-05-03T14:22:10Z</time>
      </trkpt>
      <trkpt lat="43.62393" lon="6.36457">
        <ele>618.26</ele>
        <time>2016-05-03T14:22:13Z</time>
      </trkpt>
      <trkpt lat="43.62389" lon="6.36445">
        <ele>617.78</ele>
        <time>2016-05-03T14:22:26Z</time>
      </trkpt>
      <trkpt lat="43.62384" lon="6.36442">
        <ele>617.3</ele>
        <time>2016-05-03T14:22:33Z</time>
      </trkpt>
      <trkpt lat="43.62383" lon="6.36436">
        <ele>616.82</ele>
        <time>2016-05-03T14:22:49Z</time>
      </trkpt>
      <trkpt lat="43.62382" lon="6.36437">
        <ele>616.82</ele>
        <time>2016-05-03T14:23:03Z</time>
      </trkpt>
      <trkpt lat="43.62386" lon="6.36433">
        <ele>617.78</ele>
        <time>2016-05-03T14:23:23Z</time>
      </trkpt>
      <trkpt lat="43.62385" lon="6.36436">
        <ele>617.78</ele>
        <time>2016-05-03T14:23:36Z</time>
      </trkpt>
      <trkpt lat="43.62385" lon="6.36435">
        <ele>617.3</ele>
        <time>2016-05-03T14:23:50Z</time>
      </trkpt>
      <trkpt lat="43.62385" lon="6.36435">
        <ele>617.78</ele>
        <time>2016-05-03T14:24:21Z</time>
      </trkpt>
      <trkpt lat="43.62385" lon="6.36435">
        <ele>617.3</ele>
        <time>2016-05-03T14:24:53Z</time>
      </trkpt>
      <trkpt lat="43.62385" lon="6.36435">
        <ele>617.78</ele>
        <time>2016-05-03T14:25:18Z</time>
      </trkpt>
      <trkpt lat="43.62385" lon="6.36435">
        <ele>617.78</ele>
        <time>2016-05-03T14:25:46Z</time>
      </trkpt>
      <trkpt lat="43.62382" lon="6.36429">
        <ele>617.78</ele>
        <time>2016-05-03T14:26:02Z</time>
      </trkpt>
      <trkpt lat="43.6238" lon="6.36425">
        <ele>617.78</ele>
        <time>2016-05-03T14:26:12Z</time>
      </trkpt>
      <trkpt lat="43.62381" lon="6.36413">
        <ele>617.78</ele>
        <time>2016-05-03T14:26:24Z</time>
      </trkpt>
      <trkpt lat="43.62383" lon="6.364">
        <ele>617.78</ele>
        <time>2016-05-03T14:26:38Z</time>
      </trkpt>
      <trkpt lat="43.62383" lon="6.36395">
        <ele>618.26</ele>
        <time>2016-05-03T14:26:43Z</time>
      </trkpt>
      <trkpt lat="43.62385" lon="6.36384">
        <ele>617.3</ele>
        <time>2016-05-03T14:26:54Z</time>
      </trkpt>
      <trkpt lat="43.62374" lon="6.36377">
        <ele>615.38</ele>
        <time>2016-05-03T14:27:08Z</time>
      </trkpt>
      <trkpt lat="43.6237" lon="6.36375">
        <ele>615.38</ele>
        <time>2016-05-03T14:27:13Z</time>
      </trkpt>
      <trkpt lat="43.62366" lon="6.36373">
        <ele>615.86</ele>
        <time>2016-05-03T14:27:17Z</time>
      </trkpt>
      <trkpt lat="43.62363" lon="6.36373">
        <ele>615.86</ele>
        <time>2016-05-03T14:27:20Z</time>
      </trkpt>
      <trkpt lat="43.62359" lon="6.36372">
        <ele>615.38</ele>
        <time>2016-05-03T14:27:24Z</time>
      </trkpt>
      <trkpt lat="43.62348" lon="6.3637">
        <ele>615.38</ele>
        <time>2016-05-03T14:27:38Z</time>
      </trkpt>
      <trkpt lat="43.62337" lon="6.36373">
        <ele>614.42</ele>
        <time>2016-05-03T14:27:51Z</time>
      </trkpt>
      <trkpt lat="43.62331" lon="6.36374">
        <ele>613.94</ele>
        <time>2016-05-03T14:28:04Z</time>
      </trkpt>
      <trkpt lat="43.62331" lon="6.36372">
        <ele>614.42</ele>
        <time>2016-05-03T14:28:16Z</time>
      </trkpt>
      <trkpt lat="43.62332" lon="6.36374">
        <ele>613.94</ele>
        <time>2016-05-03T14:28:30Z</time>
      </trkpt>
      <trkpt lat="43.62332" lon="6.36375">
        <ele>613.94</ele>
        <time>2016-05-03T14:28:45Z</time>
      </trkpt>
      <trkpt lat="43.62332" lon="6.3637">
        <ele>614.42</ele>
        <time>2016-05-03T14:29:00Z</time>
      </trkpt>
      <trkpt lat="43.62331" lon="6.36368">
        <ele>614.42</ele>
        <time>2016-05-03T14:29:17Z</time>
      </trkpt>
      <trkpt lat="43.62327" lon="6.36368">
        <ele>614.9</ele>
        <time>2016-05-03T14:29:38Z</time>
      </trkpt>
      <trkpt lat="43.6232" lon="6.36372">
        <ele>614.42</ele>
        <time>2016-05-03T14:29:51Z</time>
      </trkpt>
      <trkpt lat="43.62312" lon="6.36377">
        <ele>615.86</ele>
        <time>2016-05-03T14:30:02Z</time>
      </trkpt>
      <trkpt lat="43.62307" lon="6.36383">
        <ele>615.38</ele>
        <time>2016-05-03T14:30:09Z</time>
      </trkpt>
      <trkpt lat="43.62306" lon="6.36385">
        <ele>615.86</ele>
        <time>2016-05-03T14:30:12Z</time>
      </trkpt>
      <trkpt lat="43.62301" lon="6.36389">
        <ele>615.86</ele>
        <time>2016-05-03T14:30:27Z</time>
      </trkpt>
      <trkpt lat="43.62296" lon="6.36395">
        <ele>615.86</ele>
        <time>2016-05-03T14:30:36Z</time>
      </trkpt>
      <trkpt lat="43.62287" lon="6.36404">
        <ele>616.34</ele>
        <time>2016-05-03T14:30:50Z</time>
      </trkpt>
      <trkpt lat="43.62277" lon="6.36412">
        <ele>616.82</ele>
        <time>2016-05-03T14:31:04Z</time>
      </trkpt>
      <trkpt lat="43.6227" lon="6.36419">
        <ele>616.82</ele>
        <time>2016-05-03T14:31:17Z</time>
      </trkpt>
      <trkpt lat="43.62257" lon="6.36428">
        <ele>616.34</ele>
        <time>2016-05-03T14:31:31Z</time>
      </trkpt>
      <trkpt lat="43.62255" lon="6.36428">
        <ele>616.34</ele>
        <time>2016-05-03T14:31:33Z</time>
      </trkpt>
      <trkpt lat="43.62245" lon="6.36438">
        <ele>616.34</ele>
        <time>2016-05-03T14:31:48Z</time>
      </trkpt>
      <trkpt lat="43.62234" lon="6.36446">
        <ele>616.82</ele>
        <time>2016-05-03T14:32:03Z</time>
      </trkpt>
      <trkpt lat="43.62224" lon="6.36456">
        <ele>616.34</ele>
        <time>2016-05-03T14:32:17Z</time>
      </trkpt>
      <trkpt lat="43.62216" lon="6.36463">
        <ele>616.82</ele>
        <time>2016-05-03T14:32:29Z</time>
      </trkpt>
      <trkpt lat="43.62205" lon="6.36478">
        <ele>616.34</ele>
        <time>2016-05-03T14:32:46Z</time>
      </trkpt>
      <trkpt lat="43.62197" lon="6.3649">
        <ele>616.82</ele>
        <time>2016-05-03T14:32:59Z</time>
      </trkpt>
      <trkpt lat="43.62193" lon="6.36494">
        <ele>617.3</ele>
        <time>2016-05-03T14:33:05Z</time>
      </trkpt>
      <trkpt lat="43.62186" lon="6.36505">
        <ele>617.3</ele>
        <time>2016-05-03T14:33:18Z</time>
      </trkpt>
      <trkpt lat="43.62178" lon="6.36514">
        <ele>616.82</ele>
        <time>2016-05-03T14:33:31Z</time>
      </trkpt>
      <trkpt lat="43.6217" lon="6.36524">
        <ele>617.78</ele>
        <time>2016-05-03T14:33:44Z</time>
      </trkpt>
      <trkpt lat="43.62161" lon="6.36533">
        <ele>617.78</ele>
        <time>2016-05-03T14:33:58Z</time>
      </trkpt>
      <trkpt lat="43.62156" lon="6.36537">
        <ele>618.26</ele>
        <time>2016-05-03T14:34:05Z</time>
      </trkpt>
      <trkpt lat="43.62154" lon="6.36539">
        <ele>618.26</ele>
        <time>2016-05-03T14:34:08Z</time>
      </trkpt>
      <trkpt lat="43.62146" lon="6.3655">
        <ele>618.75</ele>
        <time>2016-05-03T14:34:23Z</time>
      </trkpt>
      <trkpt lat="43.6214" lon="6.36553">
        <ele>619.71</ele>
        <time>2016-05-03T14:34:36Z</time>
      </trkpt>
      <trkpt lat="43.62127" lon="6.3656">
        <ele>621.15</ele>
        <time>2016-05-03T14:34:53Z</time>
      </trkpt>
      <trkpt lat="43.62117" lon="6.36562">
        <ele>621.63</ele>
        <time>2016-05-03T14:35:07Z</time>
      </trkpt>
      <trkpt lat="43.62109" lon="6.36562">
        <ele>622.11</ele>
        <time>2016-05-03T14:35:18Z</time>
      </trkpt>
      <trkpt lat="43.62096" lon="6.36567">
        <ele>622.59</ele>
        <time>2016-05-03T14:35:32Z</time>
      </trkpt>
      <trkpt lat="43.62093" lon="6.3657">
        <ele>623.07</ele>
        <time>2016-05-03T14:35:37Z</time>
      </trkpt>
      <trkpt lat="43.62082" lon="6.36571">
        <ele>623.07</ele>
        <time>2016-05-03T14:35:50Z</time>
      </trkpt>
      <trkpt lat="43.62073" lon="6.36573">
        <ele>623.07</ele>
        <time>2016-05-03T14:36:04Z</time>
      </trkpt>
      <trkpt lat="43.62059" lon="6.36573">
        <ele>623.55</ele>
        <time>2016-05-03T14:36:18Z</time>
      </trkpt>
      <trkpt lat="43.62051" lon="6.3658">
        <ele>623.55</ele>
        <time>2016-05-03T14:36:31Z</time>
      </trkpt>
      <trkpt lat="43.62046" lon="6.36581">
        <ele>623.07</ele>
        <time>2016-05-03T14:36:43Z</time>
      </trkpt>
      <trkpt lat="43.62036" lon="6.36584">
        <ele>624.03</ele>
        <time>2016-05-03T14:36:56Z</time>
      </trkpt>
      <trkpt lat="43.62034" lon="6.36585">
        <ele>624.03</ele>
        <time>2016-05-03T14:37:11Z</time>
      </trkpt>
      <trkpt lat="43.62032" lon="6.36585">
        <ele>624.03</ele>
        <time>2016-05-03T14:37:13Z</time>
      </trkpt>
      <trkpt lat="43.6203" lon="6.36587">
        <ele>624.03</ele>
        <time>2016-05-03T14:37:16Z</time>
      </trkpt>
      <trkpt lat="43.62018" lon="6.36594">
        <ele>624.51</ele>
        <time>2016-05-03T14:37:30Z</time>
      </trkpt>
      <trkpt lat="43.62009" lon="6.36601">
        <ele>624.99</ele>
        <time>2016-05-03T14:37:43Z</time>
      </trkpt>
      <trkpt lat="43.62006" lon="6.36605">
        <ele>625.47</ele>
        <time>2016-05-03T14:37:52Z</time>
      </trkpt>
      <trkpt lat="43.62" lon="6.3661">
        <ele>626.44</ele>
        <time>2016-05-03T14:38:02Z</time>
      </trkpt>
      <trkpt lat="43.61985" lon="6.3662">
        <ele>625.96</ele>
        <time>2016-05-03T14:38:18Z</time>
      </trkpt>
      <trkpt lat="43.61978" lon="6.36622">
        <ele>626.44</ele>
        <time>2016-05-03T14:38:30Z</time>
      </trkpt>
      <trkpt lat="43.61963" lon="6.36629">
        <ele>626.44</ele>
        <time>2016-05-03T14:38:44Z</time>
      </trkpt>
      <trkpt lat="43.61947" lon="6.36638">
        <ele>626.92</ele>
        <time>2016-05-03T14:39:00Z</time>
      </trkpt>
      <trkpt lat="43.61934" lon="6.36643">
        <ele>627.4</ele>
        <time>2016-05-03T14:39:15Z</time>
      </trkpt>
      <trkpt lat="43.61923" lon="6.36649">
        <ele>627.88</ele>
        <time>2016-05-03T14:39:29Z</time>
      </trkpt>
      <trkpt lat="43.61911" lon="6.36656">
        <ele>628.36</ele>
        <time>2016-05-03T14:39:43Z</time>
      </trkpt>
      <trkpt lat="43.61907" lon="6.36657">
        <ele>628.84</ele>
        <time>2016-05-03T14:39:47Z</time>
      </trkpt>
      <trkpt lat="43.61898" lon="6.36666">
        <ele>628.84</ele>
        <time>2016-05-03T14:40:00Z</time>
      </trkpt>
      <trkpt lat="43.61888" lon="6.36672">
        <ele>629.32</ele>
        <time>2016-05-03T14:40:13Z</time>
      </trkpt>
      <trkpt lat="43.61878" lon="6.36679">
        <ele>629.8</ele>
        <time>2016-05-03T14:40:28Z</time>
      </trkpt>
      <trkpt lat="43.61869" lon="6.36685">
        <ele>630.28</ele>
        <time>2016-05-03T14:40:41Z</time>
      </trkpt>
      <trkpt lat="43.61857" lon="6.36697">
        <ele>630.28</ele>
        <time>2016-05-03T14:40:56Z</time>
      </trkpt>
      <trkpt lat="43.61847" lon="6.36706">
        <ele>629.8</ele>
        <time>2016-05-03T14:41:07Z</time>
      </trkpt>
      <trkpt lat="43.61833" lon="6.36713">
        <ele>630.76</ele>
        <time>2016-05-03T14:41:23Z</time>
      </trkpt>
      <trkpt lat="43.61825" lon="6.3672">
        <ele>631.24</ele>
        <time>2016-05-03T14:41:34Z</time>
      </trkpt>
      <trkpt lat="43.61819" lon="6.36723">
        <ele>631.24</ele>
        <time>2016-05-03T14:41:39Z</time>
      </trkpt>
      <trkpt lat="43.61806" lon="6.36725">
        <ele>631.72</ele>
        <time>2016-05-03T14:41:53Z</time>
      </trkpt>
      <trkpt lat="43.61802" lon="6.36728">
        <ele>631.24</ele>
        <time>2016-05-03T14:42:07Z</time>
      </trkpt>
      <trkpt lat="43.61803" lon="6.3673">
        <ele>630.76</ele>
        <time>2016-05-03T14:42:35Z</time>
      </trkpt>
      <trkpt lat="43.618" lon="6.36731">
        <ele>631.24</ele>
        <time>2016-05-03T14:42:47Z</time>
      </trkpt>
      <trkpt lat="43.61798" lon="6.36732">
        <ele>630.28</ele>
        <time>2016-05-03T14:42:57Z</time>
      </trkpt>
      <trkpt lat="43.61789" lon="6.36736">
        <ele>630.76</ele>
        <time>2016-05-03T14:43:09Z</time>
      </trkpt>
      <trkpt lat="43.61774" lon="6.36743">
        <ele>631.72</ele>
        <time>2016-05-03T14:43:24Z</time>
      </trkpt>
      <trkpt lat="43.61762" lon="6.36747">
        <ele>631.24</ele>
        <time>2016-05-03T14:43:38Z</time>
      </trkpt>
      <trkpt lat="43.61761" lon="6.36747">
        <ele>630.76</ele>
        <time>2016-05-03T14:43:39Z</time>
      </trkpt>
      <trkpt lat="43.61751" lon="6.36747">
        <ele>630.76</ele>
        <time>2016-05-03T14:43:53Z</time>
      </trkpt>
      <trkpt lat="43.61742" lon="6.36747">
        <ele>630.76</ele>
        <time>2016-05-03T14:44:04Z</time>
      </trkpt>
      <trkpt lat="43.61731" lon="6.36747">
        <ele>630.76</ele>
        <time>2016-05-03T14:44:17Z</time>
      </trkpt>
      <trkpt lat="43.61719" lon="6.36748">
        <ele>630.76</ele>
        <time>2016-05-03T14:44:31Z</time>
      </trkpt>
      <trkpt lat="43.61706" lon="6.36748">
        <ele>630.28</ele>
        <time>2016-05-03T14:44:46Z</time>
      </trkpt>
      <trkpt lat="43.61692" lon="6.36748">
        <ele>631.24</ele>
        <time>2016-05-03T14:45:00Z</time>
      </trkpt>
      <trkpt lat="43.6169" lon="6.36748">
        <ele>631.24</ele>
        <time>2016-05-03T14:45:02Z</time>
      </trkpt>
      <trkpt lat="43.61677" lon="6.3675">
        <ele>630.76</ele>
        <time>2016-05-03T14:45:16Z</time>
      </trkpt>
      <trkpt lat="43.61667" lon="6.36749">
        <ele>630.76</ele>
        <time>2016-05-03T14:45:28Z</time>
      </trkpt>
      <trkpt lat="43.61662" lon="6.36749">
        <ele>630.28</ele>
        <time>2016-05-03T14:45:33Z</time>
      </trkpt>
      <trkpt lat="43.61653" lon="6.36747">
        <ele>629.8</ele>
        <time>2016-05-03T14:45:44Z</time>
      </trkpt>
      <trkpt lat="43.6164" lon="6.36747">
        <ele>630.76</ele>
        <time>2016-05-03T14:45:59Z</time>
      </trkpt>
      <trkpt lat="43.61629" lon="6.3675">
        <ele>629.32</ele>
        <time>2016-05-03T14:46:12Z</time>
      </trkpt>
      <trkpt lat="43.61616" lon="6.36751">
        <ele>629.32</ele>
        <time>2016-05-03T14:46:26Z</time>
      </trkpt>
      <trkpt lat="43.61607" lon="6.36754">
        <ele>629.32</ele>
        <time>2016-05-03T14:46:39Z</time>
      </trkpt>
      <trkpt lat="43.61594" lon="6.36752">
        <ele>628.84</ele>
        <time>2016-05-03T14:46:54Z</time>
      </trkpt>
      <trkpt lat="43.61582" lon="6.36751">
        <ele>628.84</ele>
        <time>2016-05-03T14:47:09Z</time>
      </trkpt>
      <trkpt lat="43.61572" lon="6.36749">
        <ele>628.36</ele>
        <time>2016-05-03T14:47:25Z</time>
      </trkpt>
      <trkpt lat="43.61559" lon="6.36747">
        <ele>627.88</ele>
        <time>2016-05-03T14:47:40Z</time>
      </trkpt>
      <trkpt lat="43.61553" lon="6.36746">
        <ele>627.88</ele>
        <time>2016-05-03T14:47:56Z</time>
      </trkpt>
      <trkpt lat="43.61552" lon="6.36746">
        <ele>627.88</ele>
        <time>2016-05-03T14:48:18Z</time>
      </trkpt>
      <trkpt lat="43.61553" lon="6.36746">
        <ele>627.88</ele>
        <time>2016-05-03T14:48:52Z</time>
      </trkpt>
      <trkpt lat="43.61547" lon="6.3674">
        <ele>626.92</ele>
        <time>2016-05-03T14:49:11Z</time>
      </trkpt>
      <trkpt lat="43.61539" lon="6.36733">
        <ele>626.44</ele>
        <time>2016-05-03T14:49:23Z</time>
      </trkpt>
      <trkpt lat="43.6153" lon="6.36727">
        <ele>626.44</ele>
        <time>2016-05-03T14:49:34Z</time>
      </trkpt>
      <trkpt lat="43.61526" lon="6.36726">
        <ele>625.47</ele>
        <time>2016-05-03T14:49:41Z</time>
      </trkpt>
      <trkpt lat="43.61515" lon="6.36724">
        <ele>625.96</ele>
        <time>2016-05-03T14:49:54Z</time>
      </trkpt>
      <trkpt lat="43.61504" lon="6.36721">
        <ele>624.51</ele>
        <time>2016-05-03T14:50:07Z</time>
      </trkpt>
      <trkpt lat="43.61494" lon="6.36719">
        <ele>624.03</ele>
        <time>2016-05-03T14:50:22Z</time>
      </trkpt>
      <trkpt lat="43.61486" lon="6.36715">
        <ele>624.03</ele>
        <time>2016-05-03T14:50:31Z</time>
      </trkpt>
      <trkpt lat="43.61481" lon="6.36713">
        <ele>623.55</ele>
        <time>2016-05-03T14:50:36Z</time>
      </trkpt>
      <trkpt lat="43.6147" lon="6.36706">
        <ele>622.59</ele>
        <time>2016-05-03T14:50:49Z</time>
      </trkpt>
      <trkpt lat="43.61461" lon="6.367">
        <ele>622.11</ele>
        <time>2016-05-03T14:51:00Z</time>
      </trkpt>
      <trkpt lat="43.61453" lon="6.36694">
        <ele>620.67</ele>
        <time>2016-05-03T14:51:13Z</time>
      </trkpt>
      <trkpt lat="43.61452" lon="6.36694">
        <ele>620.19</ele>
        <time>2016-05-03T14:51:16Z</time>
      </trkpt>
      <trkpt lat="43.61446" lon="6.36694">
        <ele>619.23</ele>
        <time>2016-05-03T14:51:22Z</time>
      </trkpt>
      <trkpt lat="43.6144" lon="6.36695">
        <ele>618.75</ele>
        <time>2016-05-03T14:51:34Z</time>
      </trkpt>
      <trkpt lat="43.6144" lon="6.36696">
        <ele>618.75</ele>
        <time>2016-05-03T14:51:53Z</time>
      </trkpt>
      <trkpt lat="43.6144" lon="6.36697">
        <ele>618.75</ele>
        <time>2016-05-03T14:52:22Z</time>
      </trkpt>
      <trkpt lat="43.6144" lon="6.36697">
        <ele>618.26</ele>
        <time>2016-05-03T14:52:54Z</time>
      </trkpt>
      <trkpt lat="43.6144" lon="6.36698">
        <ele>618.75</ele>
        <time>2016-05-03T14:53:28Z</time>
      </trkpt>
      <trkpt lat="43.61439" lon="6.36698">
        <ele>619.23</ele>
        <time>2016-05-03T14:53:56Z</time>
      </trkpt>
      <trkpt lat="43.61438" lon="6.36698">
        <ele>618.26</ele>
        <time>2016-05-03T14:54:24Z</time>
      </trkpt>
      <trkpt lat="43.61428" lon="6.36708">
        <ele>616.34</ele>
        <time>2016-05-03T14:54:39Z</time>
      </trkpt>
      <trkpt lat="43.61422" lon="6.36702">
        <ele>614.9</ele>
        <time>2016-05-03T14:54:53Z</time>
      </trkpt>
      <trkpt lat="43.61423" lon="6.36697">
        <ele>614.42</ele>
        <time>2016-05-03T14:54:57Z</time>
      </trkpt>
      <trkpt lat="43.61416" lon="6.36684">
        <ele>612.98</ele>
        <time>2016-05-03T14:55:10Z</time>
      </trkpt>
      <trkpt lat="43.61399" lon="6.36679">
        <ele>613.46</ele>
        <time>2016-05-03T14:55:26Z</time>
      </trkpt>
      <trkpt lat="43.61387" lon="6.36681">
        <ele>612.98</ele>
        <time>2016-05-03T14:55:40Z</time>
      </trkpt>
      <trkpt lat="43.61375" lon="6.36674">
        <ele>613.46</ele>
        <time>2016-05-03T14:55:54Z</time>
      </trkpt>
      <trkpt lat="43.61368" lon="6.36672">
        <ele>611.54</ele>
        <time>2016-05-03T14:56:02Z</time>
      </trkpt>
      <trkpt lat="43.61359" lon="6.36664">
        <ele>606.73</ele>
        <time>2016-05-03T14:56:14Z</time>
      </trkpt>
      <trkpt lat="43.61358" lon="6.36663">
        <ele>612.98</ele>
        <time>2016-05-03T14:56:15Z</time>
      </trkpt>
      <trkpt lat="43.61357" lon="6.36662">
        <ele>609.61</ele>
        <time>2016-05-03T14:56:17Z</time>
      </trkpt>
      <trkpt lat="43.61346" lon="6.36651">
        <ele>606.25</ele>
        <time>2016-05-03T14:56:31Z</time>
      </trkpt>
      <trkpt lat="43.61342" lon="6.36646">
        <ele>606.25</ele>
        <time>2016-05-03T14:56:39Z</time>
      </trkpt>
      <trkpt lat="43.61336" lon="6.3664">
        <ele>606.25</ele>
        <time>2016-05-03T14:56:44Z</time>
      </trkpt>
      <trkpt lat="43.61325" lon="6.3663">
        <ele>604.33</ele>
        <time>2016-05-03T14:56:59Z</time>
      </trkpt>
      <trkpt lat="43.61315" lon="6.3663">
        <ele>602.4</ele>
        <time>2016-05-03T14:57:12Z</time>
      </trkpt>
      <trkpt lat="43.61313" lon="6.36631">
        <ele>601.92</ele>
        <time>2016-05-03T14:57:15Z</time>
      </trkpt>
      <trkpt lat="43.61304" lon="6.36635">
        <ele>600.48</ele>
        <time>2016-05-03T14:57:27Z</time>
      </trkpt>
      <trkpt lat="43.61303" lon="6.36649">
        <ele>599.04</ele>
        <time>2016-05-03T14:57:40Z</time>
      </trkpt>
      <trkpt lat="43.61303" lon="6.36663">
        <ele>598.08</ele>
        <time>2016-05-03T14:57:53Z</time>
      </trkpt>
      <trkpt lat="43.61303" lon="6.36665">
        <ele>597.6</ele>
        <time>2016-05-03T14:57:55Z</time>
      </trkpt>
      <trkpt lat="43.61303" lon="6.3667">
        <ele>597.6</ele>
        <time>2016-05-03T14:57:59Z</time>
      </trkpt>
      <trkpt lat="43.61299" lon="6.36688">
        <ele>596.15</ele>
        <time>2016-05-03T14:58:15Z</time>
      </trkpt>
      <trkpt lat="43.61291" lon="6.3669">
        <ele>594.71</ele>
        <time>2016-05-03T14:58:29Z</time>
      </trkpt>
      <trkpt lat="43.61286" lon="6.36686">
        <ele>592.79</ele>
        <time>2016-05-03T14:58:40Z</time>
      </trkpt>
      <trkpt lat="43.61279" lon="6.36685">
        <ele>591.83</ele>
        <time>2016-05-03T14:58:53Z</time>
      </trkpt>
      <trkpt lat="43.61279" lon="6.36686">
        <ele>592.31</ele>
        <time>2016-05-03T14:59:15Z</time>
      </trkpt>
      <trkpt lat="43.61279" lon="6.36688">
        <ele>591.83</ele>
        <time>2016-05-03T14:59:49Z</time>
      </trkpt>
      <trkpt lat="43.61278" lon="6.36689">
        <ele>591.83</ele>
        <time>2016-05-03T15:00:23Z</time>
      </trkpt>
      <trkpt lat="43.61279" lon="6.3669">
        <ele>591.83</ele>
        <time>2016-05-03T15:00:47Z</time>
      </trkpt>
      <trkpt lat="43.61276" lon="6.3669">
        <ele>591.35</ele>
        <time>2016-05-03T15:00:49Z</time>
      </trkpt>
      <trkpt lat="43.61264" lon="6.36696">
        <ele>591.35</ele>
        <time>2016-05-03T15:01:03Z</time>
      </trkpt>
      <trkpt lat="43.61261" lon="6.367">
        <ele>590.87</ele>
        <time>2016-05-03T15:01:08Z</time>
      </trkpt>
      <trkpt lat="43.61254" lon="6.36708">
        <ele>589.43</ele>
        <time>2016-05-03T15:01:22Z</time>
      </trkpt>
      <trkpt lat="43.61249" lon="6.36711">
        <ele>588.46</ele>
        <time>2016-05-03T15:01:29Z</time>
      </trkpt>
      <trkpt lat="43.61247" lon="6.36712">
        <ele>588.46</ele>
        <time>2016-05-03T15:01:31Z</time>
      </trkpt>
      <trkpt lat="43.61238" lon="6.36713">
        <ele>587.5</ele>
        <time>2016-05-03T15:01:45Z</time>
      </trkpt>
      <trkpt lat="43.61228" lon="6.36717">
        <ele>586.06</ele>
        <time>2016-05-03T15:01:58Z</time>
      </trkpt>
      <trkpt lat="43.61219" lon="6.36718">
        <ele>584.14</ele>
        <time>2016-05-03T15:02:13Z</time>
      </trkpt>
      <trkpt lat="43.61209" lon="6.36723">
        <ele>583.66</ele>
        <time>2016-05-03T15:02:25Z</time>
      </trkpt>
      <trkpt lat="43.61196" lon="6.36728">
        <ele>583.18</ele>
        <time>2016-05-03T15:02:41Z</time>
      </trkpt>
      <trkpt lat="43.61195" lon="6.36729">
        <ele>583.18</ele>
        <time>2016-05-03T15:02:42Z</time>
      </trkpt>
      <trkpt lat="43.61191" lon="6.36733">
        <ele>582.7</ele>
        <time>2016-05-03T15:02:47Z</time>
      </trkpt>
      <trkpt lat="43.61185" lon="6.36741">
        <ele>582.22</ele>
        <time>2016-05-03T15:02:55Z</time>
      </trkpt>
      <trkpt lat="43.61175" lon="6.36752">
        <ele>581.25</ele>
        <time>2016-05-03T15:03:09Z</time>
      </trkpt>
      <trkpt lat="43.61167" lon="6.36769">
        <ele>581.25</ele>
        <time>2016-05-03T15:03:21Z</time>
      </trkpt>
      <trkpt lat="43.61162" lon="6.36785">
        <ele>579.81</ele>
        <time>2016-05-03T15:03:33Z</time>
      </trkpt>
      <trkpt lat="43.61161" lon="6.36786">
        <ele>579.81</ele>
        <time>2016-05-03T15:03:34Z</time>
      </trkpt>
      <trkpt lat="43.61158" lon="6.36798">
        <ele>579.33</ele>
        <time>2016-05-03T15:03:44Z</time>
      </trkpt>
      <trkpt lat="43.61155" lon="6.36813">
        <ele>578.85</ele>
        <time>2016-05-03T15:03:55Z</time>
      </trkpt>
      <trkpt lat="43.61153" lon="6.36819">
        <ele>579.81</ele>
        <time>2016-05-03T15:04:00Z</time>
      </trkpt>
      <trkpt lat="43.61155" lon="6.36825">
        <ele>578.37</ele>
        <time>2016-05-03T15:04:15Z</time>
      </trkpt>
      <trkpt lat="43.61154" lon="6.36826">
        <ele>577.89</ele>
        <time>2016-05-03T15:04:36Z</time>
      </trkpt>
      <trkpt lat="43.61155" lon="6.36826">
        <ele>577.89</ele>
        <time>2016-05-03T15:05:06Z</time>
      </trkpt>
      <trkpt lat="43.61156" lon="6.36831">
        <ele>578.37</ele>
        <time>2016-05-03T15:05:36Z</time>
      </trkpt>
      <trkpt lat="43.61157" lon="6.3684">
        <ele>576.45</ele>
        <time>2016-05-03T15:05:44Z</time>
      </trkpt>
      <trkpt lat="43.61154" lon="6.36849">
        <ele>575.97</ele>
        <time>2016-05-03T15:05:50Z</time>
      </trkpt>
      <trkpt lat="43.61153" lon="6.36856">
        <ele>575.49</ele>
        <time>2016-05-03T15:05:54Z</time>
      </trkpt>
      <trkpt lat="43.61152" lon="6.36875">
        <ele>575.01</ele>
        <time>2016-05-03T15:06:08Z</time>
      </trkpt>
      <trkpt lat="43.61149" lon="6.36884">
        <ele>575.49</ele>
        <time>2016-05-03T15:06:14Z</time>
      </trkpt>
      <trkpt lat="43.61151" lon="6.36903">
        <ele>575.01</ele>
        <time>2016-05-03T15:06:30Z</time>
      </trkpt>
      <trkpt lat="43.61144" lon="6.36913">
        <ele>574.53</ele>
        <time>2016-05-03T15:06:39Z</time>
      </trkpt>
      <trkpt lat="43.61143" lon="6.36916">
        <ele>574.53</ele>
        <time>2016-05-03T15:06:41Z</time>
      </trkpt>
      <trkpt lat="43.61135" lon="6.3693">
        <ele>574.53</ele>
        <time>2016-05-03T15:06:54Z</time>
      </trkpt>
      <trkpt lat="43.61132" lon="6.36935">
        <ele>573.56</ele>
        <time>2016-05-03T15:06:59Z</time>
      </trkpt>
      <trkpt lat="43.61126" lon="6.36942">
        <ele>573.08</ele>
        <time>2016-05-03T15:07:12Z</time>
      </trkpt>
      <trkpt lat="43.61121" lon="6.36954">
        <ele>572.12</ele>
        <time>2016-05-03T15:07:25Z</time>
      </trkpt>
      <trkpt lat="43.61112" lon="6.36966">
        <ele>570.68</ele>
        <time>2016-05-03T15:07:41Z</time>
      </trkpt>
      <trkpt lat="43.61108" lon="6.36969">
        <ele>570.68</ele>
        <time>2016-05-03T15:07:51Z</time>
      </trkpt>
      <trkpt lat="43.61107" lon="6.3697">
        <ele>570.68</ele>
        <time>2016-05-03T15:07:52Z</time>
      </trkpt>
      <trkpt lat="43.61098" lon="6.3698">
        <ele>570.2</ele>
        <time>2016-05-03T15:08:00Z</time>
      </trkpt>
      <trkpt lat="43.61092" lon="6.36984">
        <ele>569.72</ele>
        <time>2016-05-03T15:08:09Z</time>
      </trkpt>
      <trkpt lat="43.61087" lon="6.36993">
        <ele>573.08</ele>
        <time>2016-05-03T15:08:22Z</time>
      </trkpt>
      <trkpt lat="43.61088" lon="6.36995">
        <ele>570.68</ele>
        <time>2016-05-03T15:08:40Z</time>
      </trkpt>
      <trkpt lat="43.61088" lon="6.36997">
        <ele>570.68</ele>
        <time>2016-05-03T15:08:54Z</time>
      </trkpt>
      <trkpt lat="43.61089" lon="6.36997">
        <ele>570.68</ele>
        <time>2016-05-03T15:09:11Z</time>
      </trkpt>
      <trkpt lat="43.61089" lon="6.36996">
        <ele>571.16</ele>
        <time>2016-05-03T15:09:31Z</time>
      </trkpt>
      <trkpt lat="43.61088" lon="6.36996">
        <ele>571.16</ele>
        <time>2016-05-03T15:09:47Z</time>
      </trkpt>
      <trkpt lat="43.61088" lon="6.36997">
        <ele>570.68</ele>
        <time>2016-05-03T15:10:04Z</time>
      </trkpt>
      <trkpt lat="43.61085" lon="6.36998">
        <ele>570.68</ele>
        <time>2016-05-03T15:10:23Z</time>
      </trkpt>
      <trkpt lat="43.61084" lon="6.36999">
        <ele>569.72</ele>
        <time>2016-05-03T15:10:36Z</time>
      </trkpt>
      <trkpt lat="43.61081" lon="6.37002">
        <ele>569.24</ele>
        <time>2016-05-03T15:10:54Z</time>
      </trkpt>
      <trkpt lat="43.61081" lon="6.37003">
        <ele>568.76</ele>
        <time>2016-05-03T15:11:19Z</time>
      </trkpt>
      <trkpt lat="43.61082" lon="6.37004">
        <ele>569.72</ele>
        <time>2016-05-03T15:11:47Z</time>
      </trkpt>
      <trkpt lat="43.61079" lon="6.37005">
        <ele>570.2</ele>
        <time>2016-05-03T15:12:17Z</time>
      </trkpt>
      <trkpt lat="43.61075" lon="6.37006">
        <ele>570.68</ele>
        <time>2016-05-03T15:12:21Z</time>
      </trkpt>
      <trkpt lat="43.61066" lon="6.37013">
        <ele>571.16</ele>
        <time>2016-05-03T15:12:33Z</time>
      </trkpt>
      <trkpt lat="43.61059" lon="6.37018">
        <ele>571.64</ele>
        <time>2016-05-03T15:12:46Z</time>
      </trkpt>
      <trkpt lat="43.61056" lon="6.37019">
        <ele>573.08</ele>
        <time>2016-05-03T15:12:51Z</time>
      </trkpt>
      <trkpt lat="43.61046" lon="6.37025">
        <ele>575.49</ele>
        <time>2016-05-03T15:13:05Z</time>
      </trkpt>
      <trkpt lat="43.61038" lon="6.37032">
        <ele>577.41</ele>
        <time>2016-05-03T15:13:20Z</time>
      </trkpt>
      <trkpt lat="43.61034" lon="6.37035">
        <ele>579.81</ele>
        <time>2016-05-03T15:13:32Z</time>
      </trkpt>
      <trkpt lat="43.61028" lon="6.37039">
        <ele>580.77</ele>
        <time>2016-05-03T15:13:45Z</time>
      </trkpt>
      <trkpt lat="43.61022" lon="6.3704">
        <ele>583.66</ele>
        <time>2016-05-03T15:13:58Z</time>
      </trkpt>
      <trkpt lat="43.61017" lon="6.3704">
        <ele>585.1</ele>
        <time>2016-05-03T15:14:11Z</time>
      </trkpt>
      <trkpt lat="43.61015" lon="6.3704">
        <ele>586.06</ele>
        <time>2016-05-03T15:14:23Z</time>
      </trkpt>
      <trkpt lat="43.61011" lon="6.37039">
        <ele>588.46</ele>
        <time>2016-05-03T15:14:38Z</time>
      </trkpt>
      <trkpt lat="43.61004" lon="6.37038">
        <ele>590.87</ele>
        <time>2016-05-03T15:14:52Z</time>
      </trkpt>
      <trkpt lat="43.60998" lon="6.37035">
        <ele>592.79</ele>
        <time>2016-05-03T15:15:03Z</time>
      </trkpt>
      <trkpt lat="43.60991" lon="6.37038">
        <ele>594.71</ele>
        <time>2016-05-03T15:15:16Z</time>
      </trkpt>
      <trkpt lat="43.60987" lon="6.37042">
        <ele>597.6</ele>
        <time>2016-05-03T15:15:31Z</time>
      </trkpt>
      <trkpt lat="43.60988" lon="6.37044">
        <ele>598.08</ele>
        <time>2016-05-03T15:15:48Z</time>
      </trkpt>
      <trkpt lat="43.60988" lon="6.37047">
        <ele>598.56</ele>
        <time>2016-05-03T15:16:17Z</time>
      </trkpt>
      <trkpt lat="43.60989" lon="6.37049">
        <ele>597.6</ele>
        <time>2016-05-03T15:16:55Z</time>
      </trkpt>
      <trkpt lat="43.60989" lon="6.37049">
        <ele>597.12</ele>
        <time>2016-05-03T15:17:14Z</time>
      </trkpt>
      <trkpt lat="43.60988" lon="6.37051">
        <ele>597.6</ele>
        <time>2016-05-03T15:17:47Z</time>
      </trkpt>
      <trkpt lat="43.60988" lon="6.37052">
        <ele>597.6</ele>
        <time>2016-05-03T15:18:18Z</time>
      </trkpt>
      <trkpt lat="43.60981" lon="6.37053">
        <ele>599.04</ele>
        <time>2016-05-03T15:18:36Z</time>
      </trkpt>
      <trkpt lat="43.60975" lon="6.37055">
        <ele>601.92</ele>
        <time>2016-05-03T15:18:50Z</time>
      </trkpt>
      <trkpt lat="43.60969" lon="6.37064">
        <ele>603.85</ele>
        <time>2016-05-03T15:19:02Z</time>
      </trkpt>
      <trkpt lat="43.60963" lon="6.37071">
        <ele>604.81</ele>
        <time>2016-05-03T15:19:16Z</time>
      </trkpt>
      <trkpt lat="43.60958" lon="6.37077">
        <ele>606.25</ele>
        <time>2016-05-03T15:19:29Z</time>
      </trkpt>
      <trkpt lat="43.60952" lon="6.37084">
        <ele>608.65</ele>
        <time>2016-05-03T15:19:41Z</time>
      </trkpt>
      <trkpt lat="43.60947" lon="6.37091">
        <ele>610.57</ele>
        <time>2016-05-03T15:19:55Z</time>
      </trkpt>
      <trkpt lat="43.60943" lon="6.37096">
        <ele>613.94</ele>
        <time>2016-05-03T15:20:02Z</time>
      </trkpt>
      <trkpt lat="43.60936" lon="6.37103">
        <ele>612.98</ele>
        <time>2016-05-03T15:20:14Z</time>
      </trkpt>
      <trkpt lat="43.60932" lon="6.37106">
        <ele>612.5</ele>
        <time>2016-05-03T15:20:27Z</time>
      </trkpt>
      <trkpt lat="43.60933" lon="6.37108">
        <ele>612.98</ele>
        <time>2016-05-03T15:21:01Z</time>
      </trkpt>
      <trkpt lat="43.60933" lon="6.37109">
        <ele>613.46</ele>
        <time>2016-05-03T15:21:28Z</time>
      </trkpt>
      <trkpt lat="43.60933" lon="6.3711">
        <ele>612.5</ele>
        <time>2016-05-03T15:21:54Z</time>
      </trkpt>
      <trkpt lat="43.60932" lon="6.3711">
        <ele>613.46</ele>
        <time>2016-05-03T15:22:20Z</time>
      </trkpt>
      <trkpt lat="43.60929" lon="6.37112">
        <ele>614.42</ele>
        <time>2016-05-03T15:22:33Z</time>
      </trkpt>
      <trkpt lat="43.60928" lon="6.37112">
        <ele>614.42</ele>
        <time>2016-05-03T15:22:34Z</time>
      </trkpt>
      <trkpt lat="43.60921" lon="6.37121">
        <ele>616.34</ele>
        <time>2016-05-03T15:22:50Z</time>
      </trkpt>
      <trkpt lat="43.60912" lon="6.3713">
        <ele>618.75</ele>
        <time>2016-05-03T15:23:04Z</time>
      </trkpt>
      <trkpt lat="43.60904" lon="6.3714">
        <ele>619.71</ele>
        <time>2016-05-03T15:23:17Z</time>
      </trkpt>
      <trkpt lat="43.60901" lon="6.37141">
        <ele>620.19</ele>
        <time>2016-05-03T15:23:21Z</time>
      </trkpt>
      <trkpt lat="43.6089" lon="6.37146">
        <ele>621.63</ele>
        <time>2016-05-03T15:23:35Z</time>
      </trkpt>
      <trkpt lat="43.60885" lon="6.37153">
        <ele>622.11</ele>
        <time>2016-05-03T15:23:41Z</time>
      </trkpt>
      <trkpt lat="43.60876" lon="6.3716">
        <ele>623.55</ele>
        <time>2016-05-03T15:23:54Z</time>
      </trkpt>
      <trkpt lat="43.60872" lon="6.37165">
        <ele>623.55</ele>
        <time>2016-05-03T15:24:00Z</time>
      </trkpt>
      <trkpt lat="43.60863" lon="6.37177">
        <ele>624.51</ele>
        <time>2016-05-03T15:24:12Z</time>
      </trkpt>
      <trkpt lat="43.6086" lon="6.37181">
        <ele>624.99</ele>
        <time>2016-05-03T15:24:18Z</time>
      </trkpt>
      <trkpt lat="43.60854" lon="6.37188">
        <ele>624.99</ele>
        <time>2016-05-03T15:24:25Z</time>
      </trkpt>
      <trkpt lat="43.60852" lon="6.37191">
        <ele>624.51</ele>
        <time>2016-05-03T15:24:29Z</time>
      </trkpt>
      <trkpt lat="43.60843" lon="6.37202">
        <ele>624.99</ele>
        <time>2016-05-03T15:24:41Z</time>
      </trkpt>
      <trkpt lat="43.60841" lon="6.37208">
        <ele>624.99</ele>
        <time>2016-05-03T15:24:47Z</time>
      </trkpt>
      <trkpt lat="43.60829" lon="6.37221">
        <ele>625.96</ele>
        <time>2016-05-03T15:25:03Z</time>
      </trkpt>
      <trkpt lat="43.60828" lon="6.37224">
        <ele>624.99</ele>
        <time>2016-05-03T15:25:06Z</time>
      </trkpt>
      <trkpt lat="43.60824" lon="6.37228">
        <ele>625.96</ele>
        <time>2016-05-03T15:25:09Z</time>
      </trkpt>
      <trkpt lat="43.6082" lon="6.37233">
        <ele>625.96</ele>
        <time>2016-05-03T15:25:16Z</time>
      </trkpt>
      <trkpt lat="43.60819" lon="6.37236">
        <ele>626.44</ele>
        <time>2016-05-03T15:25:30Z</time>
      </trkpt>
      <trkpt lat="43.60819" lon="6.37238">
        <ele>625.96</ele>
        <time>2016-05-03T15:26:06Z</time>
      </trkpt>
      <trkpt lat="43.6082" lon="6.37238">
        <ele>625.96</ele>
        <time>2016-05-03T15:26:37Z</time>
      </trkpt>
      <trkpt lat="43.60819" lon="6.3724">
        <ele>626.44</ele>
        <time>2016-05-03T15:27:01Z</time>
      </trkpt>
      <trkpt lat="43.60818" lon="6.37241">
        <ele>626.44</ele>
        <time>2016-05-03T15:27:02Z</time>
      </trkpt>
      <trkpt lat="43.60809" lon="6.37258">
        <ele>626.92</ele>
        <time>2016-05-03T15:27:16Z</time>
      </trkpt>
      <trkpt lat="43.60808" lon="6.3726">
        <ele>626.92</ele>
        <time>2016-05-03T15:27:17Z</time>
      </trkpt>
      <trkpt lat="43.608" lon="6.37275">
        <ele>626.44</ele>
        <time>2016-05-03T15:27:29Z</time>
      </trkpt>
      <trkpt lat="43.60792" lon="6.37288">
        <ele>625.47</ele>
        <time>2016-05-03T15:27:42Z</time>
      </trkpt>
      <trkpt lat="43.60782" lon="6.373">
        <ele>625.96</ele>
        <time>2016-05-03T15:27:55Z</time>
      </trkpt>
      <trkpt lat="43.60779" lon="6.37307">
        <ele>625.47</ele>
        <time>2016-05-03T15:28:01Z</time>
      </trkpt>
      <trkpt lat="43.60777" lon="6.3731">
        <ele>626.44</ele>
        <time>2016-05-03T15:28:03Z</time>
      </trkpt>
      <trkpt lat="43.60767" lon="6.37327">
        <ele>624.99</ele>
        <time>2016-05-03T15:28:16Z</time>
      </trkpt>
      <trkpt lat="43.60764" lon="6.37331">
        <ele>625.47</ele>
        <time>2016-05-03T15:28:20Z</time>
      </trkpt>
      <trkpt lat="43.60756" lon="6.37341">
        <ele>624.51</ele>
        <time>2016-05-03T15:28:32Z</time>
      </trkpt>
      <trkpt lat="43.60752" lon="6.37347">
        <ele>625.47</ele>
        <time>2016-05-03T15:28:38Z</time>
      </trkpt>
      <trkpt lat="43.60749" lon="6.3735">
        <ele>624.51</ele>
        <time>2016-05-03T15:28:41Z</time>
      </trkpt>
      <trkpt lat="43.60743" lon="6.37354">
        <ele>625.47</ele>
        <time>2016-05-03T15:28:49Z</time>
      </trkpt>
      <trkpt lat="43.6074" lon="6.37356">
        <ele>624.99</ele>
        <time>2016-05-03T15:28:51Z</time>
      </trkpt>
      <trkpt lat="43.60726" lon="6.37373">
        <ele>624.51</ele>
        <time>2016-05-03T15:29:04Z</time>
      </trkpt>
      <trkpt lat="43.60724" lon="6.37379">
        <ele>623.55</ele>
        <time>2016-05-03T15:29:09Z</time>
      </trkpt>
      <trkpt lat="43.60723" lon="6.37382">
        <ele>623.55</ele>
        <time>2016-05-03T15:29:11Z</time>
      </trkpt>
      <trkpt lat="43.60721" lon="6.37389">
        <ele>623.07</ele>
        <time>2016-05-03T15:29:18Z</time>
      </trkpt>
      <trkpt lat="43.60712" lon="6.37404">
        <ele>622.11</ele>
        <time>2016-05-03T15:29:29Z</time>
      </trkpt>
      <trkpt lat="43.6071" lon="6.37407">
        <ele>622.11</ele>
        <time>2016-05-03T15:29:31Z</time>
      </trkpt>
      <trkpt lat="43.60709" lon="6.3741">
        <ele>622.11</ele>
        <time>2016-05-03T15:29:34Z</time>
      </trkpt>
      <trkpt lat="43.60708" lon="6.37414">
        <ele>622.59</ele>
        <time>2016-05-03T15:29:37Z</time>
      </trkpt>
      <trkpt lat="43.60702" lon="6.37434">
        <ele>622.59</ele>
        <time>2016-05-03T15:29:50Z</time>
      </trkpt>
      <trkpt lat="43.60699" lon="6.37451">
        <ele>623.07</ele>
        <time>2016-05-03T15:30:01Z</time>
      </trkpt>
      <trkpt lat="43.60699" lon="6.37463">
        <ele>623.55</ele>
        <time>2016-05-03T15:30:11Z</time>
      </trkpt>
      <trkpt lat="43.60696" lon="6.37479">
        <ele>624.03</ele>
        <time>2016-05-03T15:30:23Z</time>
      </trkpt>
      <trkpt lat="43.60695" lon="6.37496">
        <ele>624.99</ele>
        <time>2016-05-03T15:30:37Z</time>
      </trkpt>
      <trkpt lat="43.60694" lon="6.37499">
        <ele>624.51</ele>
        <time>2016-05-03T15:30:58Z</time>
      </trkpt>
      <trkpt lat="43.60693" lon="6.37501">
        <ele>624.99</ele>
        <time>2016-05-03T15:31:26Z</time>
      </trkpt>
      <trkpt lat="43.60692" lon="6.37501">
        <ele>624.99</ele>
        <time>2016-05-03T15:31:55Z</time>
      </trkpt>
      <trkpt lat="43.60691" lon="6.37503">
        <ele>624.99</ele>
        <time>2016-05-03T15:32:04Z</time>
      </trkpt>
      <trkpt lat="43.60686" lon="6.37527">
        <ele>625.47</ele>
        <time>2016-05-03T15:32:15Z</time>
      </trkpt>
      <trkpt lat="43.60686" lon="6.37545">
        <ele>625.47</ele>
        <time>2016-05-03T15:32:29Z</time>
      </trkpt>
      <trkpt lat="43.60686" lon="6.37546">
        <ele>625.47</ele>
        <time>2016-05-03T15:32:30Z</time>
      </trkpt>
      <trkpt lat="43.60686" lon="6.37551">
        <ele>624.99</ele>
        <time>2016-05-03T15:32:33Z</time>
      </trkpt>
      <trkpt lat="43.60682" lon="6.37566">
        <ele>624.51</ele>
        <time>2016-05-03T15:32:43Z</time>
      </trkpt>
      <trkpt lat="43.60685" lon="6.37588">
        <ele>624.51</ele>
        <time>2016-05-03T15:32:58Z</time>
      </trkpt>
      <trkpt lat="43.60687" lon="6.37609">
        <ele>624.03</ele>
        <time>2016-05-03T15:33:11Z</time>
      </trkpt>
      <trkpt lat="43.6069" lon="6.3763">
        <ele>623.07</ele>
        <time>2016-05-03T15:33:24Z</time>
      </trkpt>
      <trkpt lat="43.60694" lon="6.37649">
        <ele>622.59</ele>
        <time>2016-05-03T15:33:37Z</time>
      </trkpt>
      <trkpt lat="43.60694" lon="6.37651">
        <ele>622.11</ele>
        <time>2016-05-03T15:33:38Z</time>
      </trkpt>
      <trkpt lat="43.60698" lon="6.37659">
        <ele>621.63</ele>
        <time>2016-05-03T15:33:45Z</time>
      </trkpt>
      <trkpt lat="43.60701" lon="6.37672">
        <ele>620.67</ele>
        <time>2016-05-03T15:33:55Z</time>
      </trkpt>
      <trkpt lat="43.60703" lon="6.37682">
        <ele>620.67</ele>
        <time>2016-05-03T15:34:02Z</time>
      </trkpt>
      <trkpt lat="43.60703" lon="6.37686">
        <ele>621.15</ele>
        <time>2016-05-03T15:34:04Z</time>
      </trkpt>
      <trkpt lat="43.60704" lon="6.37693">
        <ele>619.71</ele>
        <time>2016-05-03T15:34:09Z</time>
      </trkpt>
      <trkpt lat="43.60706" lon="6.37704">
        <ele>619.71</ele>
        <time>2016-05-03T15:34:16Z</time>
      </trkpt>
      <trkpt lat="43.60707" lon="6.37725">
        <ele>620.19</ele>
        <time>2016-05-03T15:34:29Z</time>
      </trkpt>
      <trkpt lat="43.60707" lon="6.37728">
        <ele>620.19</ele>
        <time>2016-05-03T15:34:31Z</time>
      </trkpt>
      <trkpt lat="43.60704" lon="6.37738">
        <ele>620.67</ele>
        <time>2016-05-03T15:34:37Z</time>
      </trkpt>
      <trkpt lat="43.60706" lon="6.37748">
        <ele>619.71</ele>
        <time>2016-05-03T15:34:43Z</time>
      </trkpt>
      <trkpt lat="43.60711" lon="6.37771">
        <ele>621.63</ele>
        <time>2016-05-03T15:34:56Z</time>
      </trkpt>
      <trkpt lat="43.60715" lon="6.37788">
        <ele>621.15</ele>
        <time>2016-05-03T15:35:08Z</time>
      </trkpt>
      <trkpt lat="43.60718" lon="6.37797">
        <ele>620.67</ele>
        <time>2016-05-03T15:35:14Z</time>
      </trkpt>
      <trkpt lat="43.60719" lon="6.37802">
        <ele>621.15</ele>
        <time>2016-05-03T15:35:17Z</time>
      </trkpt>
      <trkpt lat="43.60721" lon="6.37823">
        <ele>622.11</ele>
        <time>2016-05-03T15:35:30Z</time>
      </trkpt>
      <trkpt lat="43.60724" lon="6.37844">
        <ele>623.07</ele>
        <time>2016-05-03T15:35:43Z</time>
      </trkpt>
      <trkpt lat="43.60727" lon="6.37866">
        <ele>622.59</ele>
        <time>2016-05-03T15:35:57Z</time>
      </trkpt>
      <trkpt lat="43.60727" lon="6.37869">
        <ele>622.59</ele>
        <time>2016-05-03T15:35:59Z</time>
      </trkpt>
      <trkpt lat="43.60725" lon="6.37892">
        <ele>623.07</ele>
        <time>2016-05-03T15:36:14Z</time>
      </trkpt>
      <trkpt lat="43.60725" lon="6.37901">
        <ele>623.07</ele>
        <time>2016-05-03T15:36:25Z</time>
      </trkpt>
      <trkpt lat="43.60725" lon="6.37904">
        <ele>623.55</ele>
        <time>2016-05-03T15:36:39Z</time>
      </trkpt>
      <trkpt lat="43.60727" lon="6.37903">
        <ele>623.07</ele>
        <time>2016-05-03T15:37:05Z</time>
      </trkpt>
      <trkpt lat="43.60727" lon="6.3791">
        <ele>622.59</ele>
        <time>2016-05-03T15:37:17Z</time>
      </trkpt>
      <trkpt lat="43.6073" lon="6.37931">
        <ele>622.59</ele>
        <time>2016-05-03T15:37:31Z</time>
      </trkpt>
      <trkpt lat="43.60731" lon="6.37935">
        <ele>622.11</ele>
        <time>2016-05-03T15:37:34Z</time>
      </trkpt>
      <trkpt lat="43.6073" lon="6.37945">
        <ele>621.63</ele>
        <time>2016-05-03T15:37:40Z</time>
      </trkpt>
      <trkpt lat="43.60732" lon="6.37953">
        <ele>621.15</ele>
        <time>2016-05-03T15:37:46Z</time>
      </trkpt>
      <trkpt lat="43.60731" lon="6.37958">
        <ele>621.63</ele>
        <time>2016-05-03T15:37:49Z</time>
      </trkpt>
      <trkpt lat="43.60736" lon="6.37979">
        <ele>620.19</ele>
        <time>2016-05-03T15:38:05Z</time>
      </trkpt>
      <trkpt lat="43.6074" lon="6.38">
        <ele>620.19</ele>
        <time>2016-05-03T15:38:20Z</time>
      </trkpt>
      <trkpt lat="43.60741" lon="6.3802">
        <ele>619.23</ele>
        <time>2016-05-03T15:38:32Z</time>
      </trkpt>
      <trkpt lat="43.6074" lon="6.38023">
        <ele>619.23</ele>
        <time>2016-05-03T15:38:35Z</time>
      </trkpt>
      <trkpt lat="43.6075" lon="6.38043">
        <ele>618.26</ele>
        <time>2016-05-03T15:38:50Z</time>
      </trkpt>
      <trkpt lat="43.60754" lon="6.38049">
        <ele>617.3</ele>
        <time>2016-05-03T15:38:55Z</time>
      </trkpt>
      <trkpt lat="43.60762" lon="6.38062">
        <ele>616.82</ele>
        <time>2016-05-03T15:39:06Z</time>
      </trkpt>
      <trkpt lat="43.60766" lon="6.38064">
        <ele>617.3</ele>
        <time>2016-05-03T15:39:09Z</time>
      </trkpt>
      <trkpt lat="43.60768" lon="6.38068">
        <ele>617.3</ele>
        <time>2016-05-03T15:39:12Z</time>
      </trkpt>
      <trkpt lat="43.60768" lon="6.38072">
        <ele>616.34</ele>
        <time>2016-05-03T15:39:15Z</time>
      </trkpt>
      <trkpt lat="43.6077" lon="6.38074">
        <ele>615.38</ele>
        <time>2016-05-03T15:39:17Z</time>
      </trkpt>
      <trkpt lat="43.60771" lon="6.38075">
        <ele>615.38</ele>
        <time>2016-05-03T15:39:18Z</time>
      </trkpt>
      <trkpt lat="43.60772" lon="6.38077">
        <ele>615.38</ele>
        <time>2016-05-03T15:39:20Z</time>
      </trkpt>
      <trkpt lat="43.60786" lon="6.38091">
        <ele>614.9</ele>
        <time>2016-05-03T15:39:34Z</time>
      </trkpt>
      <trkpt lat="43.60794" lon="6.38107">
        <ele>613.94</ele>
        <time>2016-05-03T15:39:47Z</time>
      </trkpt>
      <trkpt lat="43.60795" lon="6.38111">
        <ele>612.98</ele>
        <time>2016-05-03T15:39:51Z</time>
      </trkpt>
      <trkpt lat="43.60796" lon="6.38115">
        <ele>613.46</ele>
        <time>2016-05-03T15:39:54Z</time>
      </trkpt>
      <trkpt lat="43.60795" lon="6.3814">
        <ele>611.06</ele>
        <time>2016-05-03T15:40:11Z</time>
      </trkpt>
      <trkpt lat="43.60794" lon="6.38155">
        <ele>610.09</ele>
        <time>2016-05-03T15:40:23Z</time>
      </trkpt>
      <trkpt lat="43.60793" lon="6.38181">
        <ele>609.61</ele>
        <time>2016-05-03T15:40:40Z</time>
      </trkpt>
      <trkpt lat="43.60791" lon="6.38194">
        <ele>608.65</ele>
        <time>2016-05-03T15:40:49Z</time>
      </trkpt>
      <trkpt lat="43.60778" lon="6.38211">
        <ele>606.25</ele>
        <time>2016-05-03T15:41:06Z</time>
      </trkpt>
      <trkpt lat="43.60771" lon="6.38225">
        <ele>605.77</ele>
        <time>2016-05-03T15:41:21Z</time>
      </trkpt>
      <trkpt lat="43.60769" lon="6.38231">
        <ele>605.77</ele>
        <time>2016-05-03T15:41:36Z</time>
      </trkpt>
      <trkpt lat="43.6077" lon="6.38232">
        <ele>606.25</ele>
        <time>2016-05-03T15:42:04Z</time>
      </trkpt>
      <trkpt lat="43.6077" lon="6.38233">
        <ele>605.77</ele>
        <time>2016-05-03T15:42:28Z</time>
      </trkpt>
      <trkpt lat="43.60769" lon="6.38237">
        <ele>606.25</ele>
        <time>2016-05-03T15:42:40Z</time>
      </trkpt>
      <trkpt lat="43.60771" lon="6.38243">
        <ele>605.77</ele>
        <time>2016-05-03T15:42:54Z</time>
      </trkpt>
      <trkpt lat="43.60771" lon="6.38248">
        <ele>604.81</ele>
        <time>2016-05-03T15:43:10Z</time>
      </trkpt>
      <trkpt lat="43.60771" lon="6.38248">
        <ele>604.81</ele>
        <time>2016-05-03T15:43:35Z</time>
      </trkpt>
      <trkpt lat="43.60766" lon="6.38254">
        <ele>602.88</ele>
        <time>2016-05-03T15:43:49Z</time>
      </trkpt>
      <trkpt lat="43.60766" lon="6.38267">
        <ele>601.92</ele>
        <time>2016-05-03T15:44:02Z</time>
      </trkpt>
      <trkpt lat="43.60765" lon="6.38271">
        <ele>601.44</ele>
        <time>2016-05-03T15:44:06Z</time>
      </trkpt>
      <trkpt lat="43.60767" lon="6.38283">
        <ele>601.92</ele>
        <time>2016-05-03T15:44:20Z</time>
      </trkpt>
      <trkpt lat="43.60767" lon="6.38284">
        <ele>600.96</ele>
        <time>2016-05-03T15:44:48Z</time>
      </trkpt>
      <trkpt lat="43.60767" lon="6.38281">
        <ele>600.96</ele>
        <time>2016-05-03T15:45:07Z</time>
      </trkpt>
      <trkpt lat="43.60766" lon="6.38279">
        <ele>600.96</ele>
        <time>2016-05-03T15:45:23Z</time>
      </trkpt>
      <trkpt lat="43.60766" lon="6.38279">
        <ele>601.92</ele>
        <time>2016-05-03T15:45:51Z</time>
      </trkpt>
      <trkpt lat="43.60767" lon="6.3828">
        <ele>600.48</ele>
        <time>2016-05-03T15:46:20Z</time>
      </trkpt>
      <trkpt lat="43.60767" lon="6.3828">
        <ele>600.96</ele>
        <time>2016-05-03T15:46:48Z</time>
      </trkpt>
      <trkpt lat="43.60767" lon="6.38278">
        <ele>600</ele>
        <time>2016-05-03T15:47:10Z</time>
      </trkpt>
      <trkpt lat="43.60766" lon="6.3828">
        <ele>599.04</ele>
        <time>2016-05-03T15:47:24Z</time>
      </trkpt>
      <trkpt lat="43.60762" lon="6.38289">
        <ele>596.15</ele>
        <time>2016-05-03T15:47:38Z</time>
      </trkpt>
      <trkpt lat="43.60751" lon="6.38293">
        <ele>594.71</ele>
        <time>2016-05-03T15:47:50Z</time>
      </trkpt>
      <trkpt lat="43.60742" lon="6.38295">
        <ele>593.75</ele>
        <time>2016-05-03T15:48:05Z</time>
      </trkpt>
      <trkpt lat="43.6074" lon="6.38295">
        <ele>592.31</ele>
        <time>2016-05-03T15:48:25Z</time>
      </trkpt>
      <trkpt lat="43.60726" lon="6.38292">
        <ele>590.39</ele>
        <time>2016-05-03T15:48:41Z</time>
      </trkpt>
      <trkpt lat="43.60724" lon="6.38284">
        <ele>588.46</ele>
        <time>2016-05-03T15:48:55Z</time>
      </trkpt>
      <trkpt lat="43.60718" lon="6.38287">
        <ele>585.1</ele>
        <time>2016-05-03T15:49:09Z</time>
      </trkpt>
      <trkpt lat="43.60708" lon="6.38294">
        <ele>582.7</ele>
        <time>2016-05-03T15:49:24Z</time>
      </trkpt>
      <trkpt lat="43.60711" lon="6.383">
        <ele>583.66</ele>
        <time>2016-05-03T15:49:49Z</time>
      </trkpt>
      <trkpt lat="43.60711" lon="6.38299">
        <ele>584.62</ele>
        <time>2016-05-03T15:50:09Z</time>
      </trkpt>
    </trkseg>
  </trk>
</gpx>